PWSweather.com
Personal Weather Stations
Station Observations
SKYDIVEKS
Skydive Kansas, Osage City, KS 66523

Skydive KansasOsage City, KS 66523

Lat: 38.636, Lon: -95.803

Elevation: 1080

Station Type: La Crosse

http://www.skydivekansas.com

Latest ConditionsUpdated 3:12:00 PM CDT Saturday, Aug 30, 2014
Currently Today's Max Today's Min Today's Average
Temperature 103.6°F39.8°C 116.8°F47.1°C 71.6°F22.0°C 95.3°F35.2°C
Dew Point 65.1°F18.4°C 73.8°F23.2°C 57.9°F14.4°C 68.0°F20.0°C
Winds 10.3 mph NE16.6 kmh NE 22.8 mph WSW36.7 kmh WSW - 3.8 mph 6.1 kmh
Wind Gusts 13.2 mph21.2 kmh 22.8 mph36.7 kmh - -
Humidity 29% 64% 28% 43%
Pressure 28.86 in977.3 mb 29.11 in985.8 mb 28.76 in973.9 mb -
Hour Temp Dew Point Humidity Winds Wind Gusts Pressure Precip Precip Rate Daily Precip Total
03:12 PM 103.6°F39.8°C 65.1°F18.4°C 29% 10.3 mph NE16.6 kmh NE 13.2 mph21.2 kmh 28.86 in977.3 mb 0.00 in0.0 mm 0.00 in/hr0.0 mm/hr 0.00 in0.0 mm
03:11 PM 104.2°F40.1°C 65.6°F18.7°C 29% 7.4 mph NE11.9 kmh NE 13.2 mph21.2 kmh 28.86 in977.3 mb 0.00 in0.0 mm 0.00 in/hr0.0 mm/hr 0.00 in0.0 mm
03:10 PM 104.5°F40.3°C 65.8°F18.8°C 29% 8.3 mph NE13.4 kmh NE 13.2 mph21.2 kmh 28.86 in977.3 mb 0.00 in0.0 mm 0.00 in/hr0.0 mm/hr 0.00 in0.0 mm
03:09 PM 104.9°F40.5°C 66.1°F18.9°C 29% 7.6 mph NE12.2 kmh NE 13.2 mph21.2 kmh 28.86 in977.3 mb 0.00 in0.0 mm 0.00 in/hr0.0 mm/hr 0.00 in0.0 mm
03:08 PM 105.1°F40.6°C 66.3°F19.1°C 29% 5.4 mph NE8.7 kmh NE 13.2 mph21.2 kmh 28.87 in977.7 mb 0.00 in0.0 mm 0.00 in/hr0.0 mm/hr 0.00 in0.0 mm
03:07 PM 105.6°F40.9°C 66.7°F19.3°C 29% 2.0 mph NNE3.2 kmh NNE 13.4 mph21.6 kmh 28.86 in977.3 mb 0.00 in0.0 mm 0.00 in/hr0.0 mm/hr 0.00 in0.0 mm
03:06 PM 106.0°F41.1°C 67.0°F19.4°C 29% 8.5 mph NNE13.7 kmh NNE 13.6 mph21.9 kmh 28.87 in977.7 mb 0.00 in0.0 mm 0.00 in/hr0.0 mm/hr 0.00 in0.0 mm
03:05 PM 106.0°F41.1°C 67.0°F19.4°C 29% 4.0 mph NNE6.4 kmh NNE 13.6 mph21.9 kmh 28.86 in977.3 mb 0.00 in0.0 mm 0.00 in/hr0.0 mm/hr 0.00 in0.0 mm
03:04 PM 106.5°F41.4°C 67.5°F19.7°C 29% 5.8 mph N9.3 kmh N 13.6 mph21.9 kmh 28.86 in977.3 mb 0.00 in0.0 mm 0.00 in/hr0.0 mm/hr 0.00 in0.0 mm
03:03 PM 106.7°F41.5°C 67.7°F19.8°C 29% 3.8 mph N6.1 kmh N 13.6 mph21.9 kmh 28.87 in977.7 mb 0.00 in0.0 mm 0.00 in/hr0.0 mm/hr 0.00 in0.0 mm
03:02 PM 107.2°F41.8°C 68.1°F20.1°C 29% Calm Calm 13.6 mph21.9 kmh 28.87 in977.7 mb 0.00 in0.0 mm 0.00 in/hr0.0 mm/hr 0.00 in0.0 mm
03:01 PM 107.6°F42.0°C 68.5°F20.3°C 29% 1.3 mph N2.1 kmh N 13.6 mph21.9 kmh 28.87 in977.7 mb 0.00 in0.0 mm 0.00 in/hr0.0 mm/hr 0.00 in0.0 mm
03:00 PM 108.1°F42.3°C 68.9°F20.5°C 29% 2.2 mph N3.5 kmh N 13.6 mph21.9 kmh 28.87 in977.7 mb 0.00 in0.0 mm 0.00 in/hr0.0 mm/hr 0.00 in0.0 mm
02:59 PM 108.1°F42.3°C 68.9°F20.5°C 29% 8.9 mph N14.3 kmh N 13.6 mph21.9 kmh 28.87 in977.7 mb 0.00 in0.0 mm 0.00 in/hr0.0 mm/hr 0.00 in0.0 mm
02:58 PM 108.1°F42.3°C 68.9°F20.5°C 29% 7.8 mph N12.6 kmh N 13.6 mph21.9 kmh 28.87 in977.7 mb 0.00 in0.0 mm 0.00 in/hr0.0 mm/hr 0.00 in0.0 mm
02:57 PM 108.1°F42.3°C 70.1°F21.2°C 30% 11.0 mph N17.7 kmh N 13.6 mph21.9 kmh 28.87 in977.7 mb 0.00 in0.0 mm 0.00 in/hr0.0 mm/hr 0.00 in0.0 mm
02:56 PM 108.1°F42.3°C 70.1°F21.2°C 30% 9.2 mph NNW14.8 kmh NNW 13.6 mph21.9 kmh 28.87 in977.7 mb 0.00 in0.0 mm 0.00 in/hr0.0 mm/hr 0.00 in0.0 mm
02:55 PM 108.1°F42.3°C 70.1°F21.2°C 30% 8.9 mph NNW14.3 kmh NNW 13.6 mph21.9 kmh 28.88 in978.0 mb 0.00 in0.0 mm 0.00 in/hr0.0 mm/hr 0.00 in0.0 mm
02:54 PM 108.1°F42.3°C 70.9°F21.6°C 31% 3.8 mph NNW6.1 kmh NNW 12.8 mph20.6 kmh 28.87 in977.7 mb 0.00 in0.0 mm 0.00 in/hr0.0 mm/hr 0.00 in0.0 mm
02:53 PM 107.8°F42.1°C 70.6°F21.4°C 31% 3.8 mph NW6.1 kmh NW 11.2 mph18.0 kmh 28.88 in978.0 mb 0.00 in0.0 mm 0.00 in/hr0.0 mm/hr 0.00 in0.0 mm
02:52 PM 107.6°F42.0°C 70.5°F21.4°C 31% 11.2 mph NW18.0 kmh NW 11.2 mph18.0 kmh 28.88 in978.0 mb 0.00 in0.0 mm 0.00 in/hr0.0 mm/hr 0.00 in0.0 mm
02:51 PM 107.4°F41.9°C 70.3°F21.3°C 31% Calm Calm 10.3 mph16.6 kmh 28.88 in978.0 mb 0.00 in0.0 mm 0.00 in/hr0.0 mm/hr 0.00 in0.0 mm
02:50 PM 107.2°F41.8°C 70.2°F21.2°C 31% 7.8 mph NW12.6 kmh NW 10.3 mph16.6 kmh 28.88 in978.0 mb 0.00 in0.0 mm 0.00 in/hr0.0 mm/hr 0.00 in0.0 mm
02:49 PM 106.9°F41.6°C 69.8°F21.0°C 31% 2.9 mph NW4.7 kmh NW 7.6 mph12.2 kmh 28.88 in978.0 mb 0.00 in0.0 mm 0.00 in/hr0.0 mm/hr 0.00 in0.0 mm
02:48 PM 106.7°F41.5°C 69.7°F20.9°C 31% 5.8 mph WNW9.3 kmh WNW 7.6 mph12.2 kmh 28.88 in978.0 mb 0.00 in0.0 mm 0.00 in/hr0.0 mm/hr 0.00 in0.0 mm
02:47 PM 106.5°F41.4°C 69.5°F20.8°C 31% 6.5 mph NW10.5 kmh NW 9.6 mph15.4 kmh 28.88 in978.0 mb 0.00 in0.0 mm 0.00 in/hr0.0 mm/hr 0.00 in0.0 mm
02:46 PM 106.3°F41.3°C 69.3°F20.7°C 31% 2.2 mph N3.5 kmh N 10.7 mph17.2 kmh 28.88 in978.0 mb 0.00 in0.0 mm 0.00 in/hr0.0 mm/hr 0.00 in0.0 mm
02:45 PM 106.3°F41.3°C 69.3°F20.7°C 31% 2.7 mph NNE4.3 kmh NNE 11.2 mph18.0 kmh 28.88 in978.0 mb 0.00 in0.0 mm 0.00 in/hr0.0 mm/hr 0.00 in0.0 mm
02:44 PM 106.2°F41.2°C 69.2°F20.7°C 31% 2.7 mph NNE4.3 kmh NNE 11.2 mph18.0 kmh 28.88 in978.0 mb 0.00 in0.0 mm 0.00 in/hr0.0 mm/hr 0.00 in0.0 mm
02:43 PM 106.2°F41.2°C 69.2°F20.7°C 31% 4.5 mph NNE7.2 kmh NNE 11.2 mph18.0 kmh 28.88 in978.0 mb 0.00 in0.0 mm 0.00 in/hr0.0 mm/hr 0.00 in0.0 mm
02:42 PM 106.3°F41.3°C 69.3°F20.7°C 31% 3.1 mph NNE5.0 kmh NNE 11.2 mph18.0 kmh 28.88 in978.0 mb 0.00 in0.0 mm 0.00 in/hr0.0 mm/hr 0.00 in0.0 mm
02:41 PM 106.5°F41.4°C 68.6°F20.3°C 30% Calm Calm 11.2 mph18.0 kmh 28.88 in978.0 mb 0.00 in0.0 mm 0.00 in/hr0.0 mm/hr 0.00 in0.0 mm
02:40 PM 106.7°F41.5°C 68.8°F20.4°C 30% Calm Calm 11.2 mph18.0 kmh 28.88 in978.0 mb 0.00 in0.0 mm 0.00 in/hr0.0 mm/hr 0.00 in0.0 mm
02:39 PM 107.2°F41.8°C 69.3°F20.7°C 30% Calm Calm 11.2 mph18.0 kmh 28.88 in978.0 mb 0.00 in0.0 mm 0.00 in/hr0.0 mm/hr 0.00 in0.0 mm
02:38 PM 107.2°F41.8°C 69.3°F20.7°C 30% 3.4 mph N5.5 kmh N 11.2 mph18.0 kmh 28.88 in978.0 mb 0.00 in0.0 mm 0.00 in/hr0.0 mm/hr 0.00 in0.0 mm
02:37 PM 107.6°F42.0°C 69.6°F20.9°C 30% 8.7 mph N14.0 kmh N 11.2 mph18.0 kmh 28.88 in978.0 mb 0.00 in0.0 mm 0.00 in/hr0.0 mm/hr 0.00 in0.0 mm
02:36 PM 107.8°F42.1°C 69.8°F21.0°C 30% 10.5 mph NNW16.9 kmh NNW 11.2 mph18.0 kmh 28.88 in978.0 mb 0.00 in0.0 mm 0.00 in/hr0.0 mm/hr 0.00 in0.0 mm
02:35 PM 108.0°F42.2°C 69.9°F21.1°C 30% 8.1 mph NW13.0 kmh NW 10.1 mph16.3 kmh 28.88 in978.0 mb 0.00 in0.0 mm 0.00 in/hr0.0 mm/hr 0.00 in0.0 mm
02:34 PM 108.1°F42.3°C 70.1°F21.2°C 30% 8.5 mph NW13.7 kmh NW 10.1 mph16.3 kmh 28.88 in978.0 mb 0.00 in0.0 mm 0.00 in/hr0.0 mm/hr 0.00 in0.0 mm
02:33 PM 108.1°F42.3°C 70.9°F21.6°C 31% 8.9 mph WNW14.3 kmh WNW 9.6 mph15.4 kmh 28.88 in978.0 mb 0.00 in0.0 mm 0.00 in/hr0.0 mm/hr 0.00 in0.0 mm
02:32 PM 108.1°F42.3°C 70.9°F21.6°C 31% 0.7 mph WNW1.1 kmh WNW 7.8 mph12.6 kmh 28.88 in978.0 mb 0.00 in0.0 mm 0.00 in/hr0.0 mm/hr 0.00 in0.0 mm
02:31 PM 108.1°F42.3°C 70.9°F21.6°C 31% 0.7 mph W1.1 kmh W 7.8 mph12.6 kmh 28.88 in978.0 mb 0.00 in0.0 mm 0.00 in/hr0.0 mm/hr 0.00 in0.0 mm
02:30 PM 108.1°F42.3°C 70.9°F21.6°C 31% Calm Calm 7.8 mph12.6 kmh 28.88 in978.0 mb 0.00 in0.0 mm 0.00 in/hr0.0 mm/hr 0.00 in0.0 mm
02:29 PM 108.1°F42.3°C 70.9°F21.6°C 31% 2.0 mph WNW3.2 kmh WNW 12.5 mph20.1 kmh 28.88 in978.0 mb 0.00 in0.0 mm 0.00 in/hr0.0 mm/hr 0.00 in0.0 mm
02:28 PM 108.0°F42.2°C 70.8°F21.6°C 31% 5.4 mph WNW8.7 kmh WNW 12.5 mph20.1 kmh 28.88 in978.0 mb 0.00 in0.0 mm 0.00 in/hr0.0 mm/hr 0.00 in0.0 mm
02:27 PM 108.0°F42.2°C 70.8°F21.6°C 31% 5.4 mph WNW8.7 kmh WNW 12.5 mph20.1 kmh 28.88 in978.0 mb 0.00 in0.0 mm 0.00 in/hr0.0 mm/hr 0.00 in0.0 mm
02:26 PM 107.8°F42.1°C 70.6°F21.4°C 31% Calm Calm 12.5 mph20.1 kmh 28.89 in978.3 mb 0.00 in0.0 mm 0.00 in/hr0.0 mm/hr 0.00 in0.0 mm
02:25 PM 107.6°F42.0°C 70.5°F21.4°C 31% 7.4 mph WNW11.9 kmh WNW 12.5 mph20.1 kmh 28.89 in978.3 mb 0.00 in0.0 mm 0.00 in/hr0.0 mm/hr 0.00 in0.0 mm
02:24 PM 107.4°F41.9°C 70.3°F21.3°C 31% 3.6 mph NW5.8 kmh NW 12.5 mph20.1 kmh 28.89 in978.3 mb 0.00 in0.0 mm 0.00 in/hr0.0 mm/hr 0.00 in0.0 mm
02:23 PM 107.4°F41.9°C 70.3°F21.3°C 31% 7.6 mph WNW12.2 kmh WNW 12.5 mph20.1 kmh 28.89 in978.3 mb 0.00 in0.0 mm 0.00 in/hr0.0 mm/hr 0.00 in0.0 mm
02:22 PM 107.4°F41.9°C 70.3°F21.3°C 31% Calm Calm 12.5 mph20.1 kmh 28.89 in978.3 mb 0.00 in0.0 mm 0.00 in/hr0.0 mm/hr 0.00 in0.0 mm
02:21 PM 107.2°F41.8°C 70.2°F21.2°C 31% Calm Calm 12.5 mph20.1 kmh 28.89 in978.3 mb 0.00 in0.0 mm 0.00 in/hr0.0 mm/hr 0.00 in0.0 mm
02:20 PM 107.2°F41.8°C 70.2°F21.2°C 31% 5.8 mph NW9.3 kmh NW 12.5 mph20.1 kmh 28.89 in978.3 mb 0.00 in0.0 mm 0.00 in/hr0.0 mm/hr 0.00 in0.0 mm
02:19 PM 107.1°F41.7°C 70.0°F21.1°C 31% 10.1 mph NW16.3 kmh NW 10.1 mph16.3 kmh 28.89 in978.3 mb 0.00 in0.0 mm 0.00 in/hr0.0 mm/hr 0.00 in0.0 mm
02:18 PM 106.9°F41.6°C 69.8°F21.0°C 31% 6.7 mph NNW10.8 kmh NNW 9.4 mph15.1 kmh 28.89 in978.3 mb 0.00 in0.0 mm 0.00 in/hr0.0 mm/hr 0.00 in0.0 mm
02:17 PM 106.9°F41.6°C 69.8°F21.0°C 31% Calm Calm 9.4 mph15.1 kmh 28.89 in978.3 mb 0.00 in0.0 mm 0.00 in/hr0.0 mm/hr 0.00 in0.0 mm
02:16 PM 106.7°F41.5°C 70.5°F21.4°C 32% Calm Calm 9.4 mph15.1 kmh 28.89 in978.3 mb 0.00 in0.0 mm 0.00 in/hr0.0 mm/hr 0.00 in0.0 mm
02:15 PM 106.5°F41.4°C 69.5°F20.8°C 31% Calm Calm 9.4 mph15.1 kmh 28.89 in978.3 mb 0.00 in0.0 mm 0.00 in/hr0.0 mm/hr 0.00 in0.0 mm
02:14 PM 106.5°F41.4°C 69.5°F20.8°C 31% Calm Calm 9.4 mph15.1 kmh 28.89 in978.3 mb 0.00 in0.0 mm 0.00 in/hr0.0 mm/hr 0.00 in0.0 mm
02:13 PM 106.5°F41.4°C 69.5°F20.8°C 31% Calm Calm 9.4 mph15.1 kmh 28.89 in978.3 mb 0.00 in0.0 mm 0.00 in/hr0.0 mm/hr 0.00 in0.0 mm
02:12 PM 106.3°F41.3°C 69.3°F20.7°C 31% Calm Calm 9.4 mph15.1 kmh 28.89 in978.3 mb 0.00 in0.0 mm 0.00 in/hr0.0 mm/hr 0.00 in0.0 mm
02:11 PM 106.3°F41.3°C 69.3°F20.7°C 31% 2.9 mph NNW4.7 kmh NNW 9.4 mph15.1 kmh 28.89 in978.3 mb 0.00 in0.0 mm 0.00 in/hr0.0 mm/hr 0.00 in0.0 mm
02:10 PM 106.3°F41.3°C 69.3°F20.7°C 31% 8.1 mph NNW13.0 kmh NNW 8.7 mph14.0 kmh 28.89 in978.3 mb 0.00 in0.0 mm 0.00 in/hr0.0 mm/hr 0.00 in0.0 mm
02:09 PM 106.5°F41.4°C 69.5°F20.8°C 31% 4.0 mph NNW6.4 kmh NNW 11.6 mph18.7 kmh 28.89 in978.3 mb 0.00 in0.0 mm 0.00 in/hr0.0 mm/hr 0.00 in0.0 mm
02:08 PM 106.5°F41.4°C 69.5°F20.8°C 31% 2.9 mph NW4.7 kmh NW 11.6 mph18.7 kmh 28.89 in978.3 mb 0.00 in0.0 mm 0.00 in/hr0.0 mm/hr 0.00 in0.0 mm
02:07 PM 106.5°F41.4°C 70.4°F21.3°C 32% Calm Calm 11.6 mph18.7 kmh 28.89 in978.3 mb 0.00 in0.0 mm 0.00 in/hr0.0 mm/hr 0.00 in0.0 mm
02:06 PM 106.5°F41.4°C 69.5°F20.8°C 31% Calm Calm 11.6 mph18.7 kmh 28.89 in978.3 mb 0.00 in0.0 mm 0.00 in/hr0.0 mm/hr 0.00 in0.0 mm
02:05 PM 106.5°F41.4°C 70.4°F21.3°C 31% Calm Calm 11.6 mph18.7 kmh 28.89 in978.3 mb 0.00 in0.0 mm 0.00 in/hr0.0 mm/hr 0.00 in0.0 mm
02:04 PM 106.5°F41.4°C 71.2°F21.8°C 33% Calm Calm 11.6 mph18.7 kmh 28.89 in978.3 mb 0.00 in0.0 mm 0.00 in/hr0.0 mm/hr 0.00 in0.0 mm
02:03 PM 106.3°F41.3°C 71.1°F21.7°C 33% Calm Calm 11.6 mph18.7 kmh 28.89 in978.3 mb 0.00 in0.0 mm 0.00 in/hr0.0 mm/hr 0.00 in0.0 mm
02:02 PM 106.2°F41.2°C 70.9°F21.6°C 33% 4.7 mph NNW7.6 kmh NNW 11.6 mph18.7 kmh 28.89 in978.3 mb 0.00 in0.0 mm 0.00 in/hr0.0 mm/hr 0.00 in0.0 mm
02:01 PM 106.0°F41.1°C 70.8°F21.6°C 33% 6.0 mph NNW9.7 kmh NNW 11.6 mph18.7 kmh 28.89 in978.3 mb 0.00 in0.0 mm 0.00 in/hr0.0 mm/hr 0.00 in0.0 mm
02:00 PM 105.6°F40.9°C 70.4°F21.3°C 33% 8.7 mph NNW14.0 kmh NNW 11.6 mph18.7 kmh 28.89 in978.3 mb 0.00 in0.0 mm 0.00 in/hr0.0 mm/hr 0.00 in0.0 mm
01:59 PM 105.6°F40.9°C 70.4°F21.3°C 33% 7.4 mph N11.9 kmh N 11.2 mph18.0 kmh 28.89 in978.3 mb 0.00 in0.0 mm 0.00 in/hr0.0 mm/hr 0.00 in0.0 mm
01:58 PM 105.6°F40.9°C 70.4°F21.3°C 33% 4.7 mph N7.6 kmh N 11.2 mph18.0 kmh 28.89 in978.3 mb 0.00 in0.0 mm 0.00 in/hr0.0 mm/hr 0.00 in0.0 mm
01:57 PM 105.6°F40.9°C 70.4°F21.3°C 33% 1.3 mph N2.1 kmh N 11.2 mph18.0 kmh 28.89 in978.3 mb 0.00 in0.0 mm 0.00 in/hr0.0 mm/hr 0.00 in0.0 mm
01:56 PM 105.8°F41.0°C 70.6°F21.4°C 33% Calm Calm 11.2 mph18.0 kmh 28.89 in978.3 mb 0.00 in0.0 mm 0.00 in/hr0.0 mm/hr 0.00 in0.0 mm
01:55 PM 106.0°F41.1°C 70.8°F21.6°C 33% 7.4 mph N11.9 kmh N 11.2 mph18.0 kmh 28.89 in978.3 mb 0.00 in0.0 mm 0.00 in/hr0.0 mm/hr 0.00 in0.0 mm
01:54 PM 106.2°F41.2°C 70.1°F21.2°C 32% 11.2 mph NNW18.0 kmh NNW 11.2 mph18.0 kmh 28.89 in978.3 mb 0.00 in0.0 mm 0.00 in/hr0.0 mm/hr 0.00 in0.0 mm
01:53 PM 106.3°F41.3°C 69.3°F20.7°C 31% Calm Calm 10.1 mph16.3 kmh 28.89 in978.3 mb 0.00 in0.0 mm 0.00 in/hr0.0 mm/hr 0.00 in0.0 mm
01:52 PM 106.5°F41.4°C 69.5°F20.8°C 31% 1.3 mph NNW2.1 kmh NNW 10.1 mph16.3 kmh 28.89 in978.3 mb 0.00 in0.0 mm 0.00 in/hr0.0 mm/hr 0.00 in0.0 mm
01:51 PM 106.5°F41.4°C 71.2°F21.8°C 33% Calm Calm 10.1 mph16.3 kmh 28.89 in978.3 mb 0.00 in0.0 mm 0.00 in/hr0.0 mm/hr 0.00 in0.0 mm
01:50 PM 106.5°F41.4°C 71.2°F21.8°C 33% 7.2 mph NW11.6 kmh NW 10.1 mph16.3 kmh 28.89 in978.3 mb 0.00 in0.0 mm 0.00 in/hr0.0 mm/hr 0.00 in0.0 mm
01:49 PM 106.5°F41.4°C 71.2°F21.8°C 33% Calm Calm 10.1 mph16.3 kmh 28.89 in978.3 mb 0.00 in0.0 mm 0.00 in/hr0.0 mm/hr 0.00 in0.0 mm
01:48 PM 106.3°F41.3°C 71.1°F21.7°C 33% 4.3 mph NW6.9 kmh NW 9.8 mph15.8 kmh 28.89 in978.3 mb 0.00 in0.0 mm 0.00 in/hr0.0 mm/hr 0.00 in0.0 mm
01:47 PM 106.2°F41.2°C 70.9°F21.6°C 33% 9.8 mph NW15.8 kmh NW 9.8 mph15.8 kmh 28.89 in978.3 mb 0.00 in0.0 mm 0.00 in/hr0.0 mm/hr 0.00 in0.0 mm
01:46 PM 106.0°F41.1°C 70.8°F21.6°C 33% 2.7 mph NW4.3 kmh NW 9.6 mph15.4 kmh 28.89 in978.3 mb 0.00 in0.0 mm 0.00 in/hr0.0 mm/hr 0.00 in0.0 mm
01:45 PM 105.8°F41.0°C 70.6°F21.4°C 33% 4.3 mph NW6.9 kmh NW 9.6 mph15.4 kmh 28.89 in978.3 mb 0.00 in0.0 mm 0.00 in/hr0.0 mm/hr 0.00 in0.0 mm
01:44 PM 105.8°F41.0°C 70.6°F21.4°C 33% 4.3 mph NW6.9 kmh NW 9.6 mph15.4 kmh 28.89 in978.3 mb 0.00 in0.0 mm 0.00 in/hr0.0 mm/hr 0.00 in0.0 mm
01:43 PM 105.6°F40.9°C 70.4°F21.3°C 33% 9.6 mph NW15.4 kmh NW 9.6 mph15.4 kmh 28.89 in978.3 mb 0.00 in0.0 mm 0.00 in/hr0.0 mm/hr 0.00 in0.0 mm
01:42 PM 105.6°F40.9°C 70.4°F21.3°C 33% 7.6 mph NW12.2 kmh NW 7.6 mph12.2 kmh 28.89 in978.3 mb 0.00 in0.0 mm 0.00 in/hr0.0 mm/hr 0.00 in0.0 mm
01:41 PM 105.4°F40.8°C 71.2°F21.8°C 34% Calm Calm 7.8 mph12.6 kmh 28.89 in978.3 mb 0.00 in0.0 mm 0.00 in/hr0.0 mm/hr 0.00 in0.0 mm
01:40 PM 105.4°F40.8°C 71.2°F21.8°C 34% Calm Calm 7.8 mph12.6 kmh 28.89 in978.3 mb 0.00 in0.0 mm 0.00 in/hr0.0 mm/hr 0.00 in0.0 mm
01:39 PM 105.3°F40.7°C 70.1°F21.2°C 33% 5.4 mph NW8.7 kmh NW 10.1 mph16.3 kmh 28.89 in978.3 mb 0.00 in0.0 mm 0.00 in/hr0.0 mm/hr 0.00 in0.0 mm
01:38 PM 105.1°F40.6°C 70.8°F21.6°C 34% 1.8 mph NW2.9 kmh NW 10.1 mph16.3 kmh 28.89 in978.3 mb 0.00 in0.0 mm 0.00 in/hr0.0 mm/hr 0.00 in0.0 mm
01:37 PM 104.9°F40.5°C 70.7°F21.5°C 34% Calm Calm 10.1 mph16.3 kmh 28.89 in978.3 mb 0.00 in0.0 mm 0.00 in/hr0.0 mm/hr 0.00 in0.0 mm
01:36 PM 104.9°F40.5°C 70.7°F21.5°C 34% Calm Calm 10.1 mph16.3 kmh 28.89 in978.3 mb 0.00 in0.0 mm 0.00 in/hr0.0 mm/hr 0.00 in0.0 mm
01:35 PM 104.7°F40.4°C 70.5°F21.4°C 34% 3.1 mph N5.0 kmh N 11.4 mph18.3 kmh 28.89 in978.3 mb 0.00 in0.0 mm 0.00 in/hr0.0 mm/hr 0.00 in0.0 mm
01:34 PM 104.7°F40.4°C 69.7°F20.9°C 33% 2.7 mph NNW4.3 kmh NNW 11.4 mph18.3 kmh 28.89 in978.3 mb 0.00 in0.0 mm 0.00 in/hr0.0 mm/hr 0.00 in0.0 mm
01:33 PM 104.7°F40.4°C 69.7°F20.9°C 33% 2.9 mph NNW4.7 kmh NNW 11.4 mph18.3 kmh 28.89 in978.3 mb 0.00 in0.0 mm 0.00 in/hr0.0 mm/hr 0.00 in0.0 mm
01:32 PM 104.7°F40.4°C 69.7°F20.9°C 33% 4.7 mph NNW7.6 kmh NNW 11.4 mph18.3 kmh 28.89 in978.3 mb 0.00 in0.0 mm 0.00 in/hr0.0 mm/hr 0.00 in0.0 mm
01:31 PM 104.7°F40.4°C 68.8°F20.4°C 32% 6.7 mph NNW10.8 kmh NNW 11.4 mph18.3 kmh 28.89 in978.3 mb 0.00 in0.0 mm 0.00 in/hr0.0 mm/hr 0.00 in0.0 mm
01:30 PM 104.7°F40.4°C 68.8°F20.4°C 32% 6.3 mph NNW10.1 kmh NNW 11.4 mph18.3 kmh 28.89 in978.3 mb 0.00 in0.0 mm 0.00 in/hr0.0 mm/hr 0.00 in0.0 mm
01:29 PM 104.9°F40.5°C 69.0°F20.6°C 32% Calm Calm 11.4 mph18.3 kmh 28.89 in978.3 mb 0.00 in0.0 mm 0.00 in/hr0.0 mm/hr 0.00 in0.0 mm
01:28 PM 104.9°F40.5°C 69.0°F20.6°C 32% Calm Calm 11.4 mph18.3 kmh 28.89 in978.3 mb 0.00 in0.0 mm 0.00 in/hr0.0 mm/hr 0.00 in0.0 mm
01:27 PM 104.9°F40.5°C 70.7°F21.5°C 34% 1.1 mph NNW1.8 kmh NNW 11.4 mph18.3 kmh 28.89 in978.3 mb 0.00 in0.0 mm 0.00 in/hr0.0 mm/hr 0.00 in0.0 mm
01:26 PM 104.7°F40.4°C 70.5°F21.4°C 34% 7.8 mph NNW12.6 kmh NNW 11.4 mph18.3 kmh 28.89 in978.3 mb 0.00 in0.0 mm 0.00 in/hr0.0 mm/hr 0.00 in0.0 mm
01:25 PM 104.7°F40.4°C 70.5°F21.4°C 34% 5.1 mph NNW8.2 kmh NNW 10.7 mph17.2 kmh 28.89 in978.3 mb 0.00 in0.0 mm 0.00 in/hr0.0 mm/hr 0.00 in0.0 mm
01:24 PM 104.5°F40.3°C 70.4°F21.3°C 34% 10.3 mph NNW16.6 kmh NNW 10.5 mph16.9 kmh 28.89 in978.3 mb 0.00 in0.0 mm 0.00 in/hr0.0 mm/hr 0.00 in0.0 mm
01:23 PM 104.5°F40.3°C 70.4°F21.3°C 34% 9.4 mph NNW15.1 kmh NNW 10.5 mph16.9 kmh 28.89 in978.3 mb 0.00 in0.0 mm 0.00 in/hr0.0 mm/hr 0.00 in0.0 mm
01:22 PM 104.4°F40.2°C 70.2°F21.2°C 34% 3.4 mph NNW5.5 kmh NNW 8.1 mph13.0 kmh 28.89 in978.3 mb 0.00 in0.0 mm 0.00 in/hr0.0 mm/hr 0.00 in0.0 mm
01:21 PM 104.5°F40.3°C 70.4°F21.3°C 34% 3.1 mph NNW5.0 kmh NNW 8.1 mph13.0 kmh 28.89 in978.3 mb 0.00 in0.0 mm 0.00 in/hr0.0 mm/hr 0.00 in0.0 mm
01:20 PM 104.4°F40.2°C 70.2°F21.2°C 34% Calm Calm 10.3 mph16.6 kmh 28.89 in978.3 mb 0.00 in0.0 mm 0.00 in/hr0.0 mm/hr 0.00 in0.0 mm
01:19 PM 104.4°F40.2°C 70.2°F21.2°C 34% Calm Calm 10.3 mph16.6 kmh 28.89 in978.3 mb 0.00 in0.0 mm 0.00 in/hr0.0 mm/hr 0.00 in0.0 mm
01:18 PM 104.4°F40.2°C 70.2°F21.2°C 34% Calm Calm 10.3 mph16.6 kmh 28.89 in978.3 mb 0.00 in0.0 mm 0.00 in/hr0.0 mm/hr 0.00 in0.0 mm
01:17 PM 104.4°F40.2°C 70.2°F21.2°C 34% 1.3 mph N2.1 kmh N 10.3 mph16.6 kmh 28.89 in978.3 mb 0.00 in0.0 mm 0.00 in/hr0.0 mm/hr 0.00 in0.0 mm
01:16 PM 104.4°F40.2°C 70.2°F21.2°C 34% 5.8 mph N9.3 kmh N 10.3 mph16.6 kmh 28.89 in978.3 mb 0.00 in0.0 mm 0.00 in/hr0.0 mm/hr 0.00 in0.0 mm
01:15 PM 104.5°F40.3°C 70.4°F21.3°C 34% 2.9 mph N4.7 kmh N 10.3 mph16.6 kmh 28.89 in978.3 mb 0.00 in0.0 mm 0.00 in/hr0.0 mm/hr 0.00 in0.0 mm
01:14 PM 104.7°F40.4°C 69.7°F20.9°C 33% 4.0 mph N6.4 kmh N 10.3 mph16.6 kmh 28.89 in978.3 mb 0.00 in0.0 mm 0.00 in/hr0.0 mm/hr 0.00 in0.0 mm
01:13 PM 104.9°F40.5°C 69.8°F21.0°C 33% Calm Calm 10.3 mph16.6 kmh 28.89 in978.3 mb 0.00 in0.0 mm 0.00 in/hr0.0 mm/hr 0.00 in0.0 mm
01:12 PM 105.1°F40.6°C 70.0°F21.1°C 33% 2.9 mph N4.7 kmh N 10.3 mph16.6 kmh 28.90 in978.7 mb 0.00 in0.0 mm 0.00 in/hr0.0 mm/hr 0.00 in0.0 mm
01:11 PM 105.1°F40.6°C 70.8°F21.6°C 34% 3.8 mph NNW6.1 kmh NNW 10.3 mph16.6 kmh 28.90 in978.7 mb 0.00 in0.0 mm 0.00 in/hr0.0 mm/hr 0.00 in0.0 mm
01:10 PM 105.1°F40.6°C 70.8°F21.6°C 34% 3.4 mph NW5.5 kmh NW 8.3 mph13.4 kmh 28.90 in978.7 mb 0.00 in0.0 mm 0.00 in/hr0.0 mm/hr 0.00 in0.0 mm
01:09 PM 105.1°F40.6°C 71.7°F22.1°C 35% 4.9 mph NW7.9 kmh NW 8.3 mph13.4 kmh 28.90 in978.7 mb 0.00 in0.0 mm 0.00 in/hr0.0 mm/hr 0.00 in0.0 mm
01:08 PM 104.9°F40.5°C 71.5°F21.9°C 35% Calm Calm 7.8 mph12.6 kmh 28.90 in978.7 mb 0.00 in0.0 mm 0.00 in/hr0.0 mm/hr 0.00 in0.0 mm
01:07 PM 104.7°F40.4°C 71.4°F21.9°C 35% 5.1 mph NW8.2 kmh NW 7.8 mph12.6 kmh 28.90 in978.7 mb 0.00 in0.0 mm 0.00 in/hr0.0 mm/hr 0.00 in0.0 mm
01:06 PM 104.7°F40.4°C 71.4°F21.9°C 35% 2.0 mph NNW3.2 kmh NNW 9.4 mph15.1 kmh 28.90 in978.7 mb 0.00 in0.0 mm 0.00 in/hr0.0 mm/hr 0.00 in0.0 mm
01:05 PM 104.5°F40.3°C 71.2°F21.8°C 35% 3.6 mph NNW5.8 kmh NNW 9.4 mph15.1 kmh 28.90 in978.7 mb 0.00 in0.0 mm 0.00 in/hr0.0 mm/hr 0.00 in0.0 mm
01:04 PM 104.5°F40.3°C 71.2°F21.8°C 35% 4.3 mph N6.9 kmh N 9.4 mph15.1 kmh 28.90 in978.7 mb 0.00 in0.0 mm 0.00 in/hr0.0 mm/hr 0.00 in0.0 mm
01:03 PM 104.4°F40.2°C 71.1°F21.7°C 35% Calm Calm 9.4 mph15.1 kmh 28.90 in978.7 mb 0.00 in0.0 mm 0.00 in/hr0.0 mm/hr 0.00 in0.0 mm
01:02 PM 104.2°F40.1°C 70.9°F21.6°C 35% 2.7 mph N4.3 kmh N 9.4 mph15.1 kmh 28.89 in978.3 mb 0.00 in0.0 mm 0.00 in/hr0.0 mm/hr 0.00 in0.0 mm
01:01 PM 104.0°F40.0°C 70.8°F21.6°C 35% Calm Calm 9.4 mph15.1 kmh 28.90 in978.7 mb 0.00 in0.0 mm 0.00 in/hr0.0 mm/hr 0.00 in0.0 mm
01:00 PM 104.0°F40.0°C 70.8°F21.6°C 35% Calm Calm 9.4 mph15.1 kmh 28.90 in978.7 mb 0.00 in0.0 mm 0.00 in/hr0.0 mm/hr 0.00 in0.0 mm
12:59 PM 103.8°F39.9°C 69.8°F21.0°C 34% 2.0 mph NE3.2 kmh NE 9.4 mph15.1 kmh 28.90 in978.7 mb 0.00 in0.0 mm 0.00 in/hr0.0 mm/hr 0.00 in0.0 mm
12:58 PM 103.8°F39.9°C 70.6°F21.4°C 35% 0.7 mph NE1.1 kmh NE 9.4 mph15.1 kmh 28.90 in978.7 mb 0.00 in0.0 mm 0.00 in/hr0.0 mm/hr 0.00 in0.0 mm
12:57 PM 103.8°F39.9°C 70.6°F21.4°C 35% 9.4 mph NE15.1 kmh NE 9.4 mph15.1 kmh 28.90 in978.7 mb 0.00 in0.0 mm 0.00 in/hr0.0 mm/hr 0.00 in0.0 mm
12:56 PM 103.8°F39.9°C 70.6°F21.4°C 35% Calm Calm 6.7 mph10.8 kmh 28.89 in978.3 mb 0.00 in0.0 mm 0.00 in/hr0.0 mm/hr 0.00 in0.0 mm
12:55 PM 103.8°F39.9°C 70.6°F21.4°C 35% Calm Calm 6.7 mph10.8 kmh 28.90 in978.7 mb 0.00 in0.0 mm 0.00 in/hr0.0 mm/hr 0.00 in0.0 mm
12:54 PM 104.0°F40.0°C 69.9°F21.1°C 34% Calm Calm 8.5 mph13.7 kmh 28.89 in978.3 mb 0.00 in0.0 mm 0.00 in/hr0.0 mm/hr 0.00 in0.0 mm
12:53 PM 104.2°F40.1°C 70.1°F21.2°C 34% Calm Calm 8.5 mph13.7 kmh 28.90 in978.7 mb 0.00 in0.0 mm 0.00 in/hr0.0 mm/hr 0.00 in0.0 mm
12:52 PM 104.4°F40.2°C 70.2°F21.2°C 34% 2.2 mph N3.5 kmh N 8.5 mph13.7 kmh 28.90 in978.7 mb 0.00 in0.0 mm 0.00 in/hr0.0 mm/hr 0.00 in0.0 mm
12:51 PM 104.5°F40.3°C 71.2°F21.8°C 35% 4.5 mph N7.2 kmh N 8.5 mph13.7 kmh 28.90 in978.7 mb 0.00 in0.0 mm 0.00 in/hr0.0 mm/hr 0.00 in0.0 mm
12:50 PM 104.5°F40.3°C 71.2°F21.8°C 35% 4.3 mph N6.9 kmh N 8.5 mph13.7 kmh 28.90 in978.7 mb 0.00 in0.0 mm 0.00 in/hr0.0 mm/hr 0.00 in0.0 mm
12:49 PM 104.4°F40.2°C 71.1°F21.7°C 35% 6.7 mph N10.8 kmh N 8.5 mph13.7 kmh 28.90 in978.7 mb 0.00 in0.0 mm 0.00 in/hr0.0 mm/hr 0.00 in0.0 mm
12:48 PM 104.4°F40.2°C 71.1°F21.7°C 35% Calm Calm 9.6 mph15.4 kmh 28.90 in978.7 mb 0.00 in0.0 mm 0.00 in/hr0.0 mm/hr 0.00 in0.0 mm
12:47 PM 104.4°F40.2°C 71.1°F21.7°C 35% 3.8 mph N6.1 kmh N 11.2 mph18.0 kmh 28.91 in979.0 mb 0.00 in0.0 mm 0.00 in/hr0.0 mm/hr 0.00 in0.0 mm
12:46 PM 104.4°F40.2°C 71.1°F21.7°C 35% 6.5 mph N10.5 kmh N 11.2 mph18.0 kmh 28.90 in978.7 mb 0.00 in0.0 mm 0.00 in/hr0.0 mm/hr 0.00 in0.0 mm
12:45 PM 104.4°F40.2°C 71.1°F21.7°C 35% 5.6 mph N9.0 kmh N 11.2 mph18.0 kmh 28.90 in978.7 mb 0.00 in0.0 mm 0.00 in/hr0.0 mm/hr 0.00 in0.0 mm
12:44 PM 104.4°F40.2°C 71.9°F22.2°C 36% 7.6 mph NNE12.2 kmh NNE 11.2 mph18.0 kmh 28.90 in978.7 mb 0.00 in0.0 mm 0.00 in/hr0.0 mm/hr 0.00 in0.0 mm
12:43 PM 104.4°F40.2°C 71.9°F22.2°C 36% 6.5 mph NNE10.5 kmh NNE 11.2 mph18.0 kmh 28.90 in978.7 mb 0.00 in0.0 mm 0.00 in/hr0.0 mm/hr 0.00 in0.0 mm
12:42 PM 104.4°F40.2°C 71.9°F22.2°C 36% 2.5 mph N4.0 kmh N 11.2 mph18.0 kmh 28.91 in979.0 mb 0.00 in0.0 mm 0.00 in/hr0.0 mm/hr 0.00 in0.0 mm
12:41 PM 104.4°F40.2°C 71.9°F22.2°C 36% Calm Calm 11.2 mph18.0 kmh 28.91 in979.0 mb 0.00 in0.0 mm 0.00 in/hr0.0 mm/hr 0.00 in0.0 mm
12:40 PM 104.4°F40.2°C 71.9°F22.2°C 36% Calm Calm 11.2 mph18.0 kmh 28.91 in979.0 mb 0.00 in0.0 mm 0.00 in/hr0.0 mm/hr 0.00 in0.0 mm
12:39 PM 104.4°F40.2°C 71.9°F22.2°C 36% Calm Calm 11.2 mph18.0 kmh 28.91 in979.0 mb 0.00 in0.0 mm 0.00 in/hr0.0 mm/hr 0.00 in0.0 mm
12:38 PM 104.2°F40.1°C 72.6°F22.6°C 37% 9.2 mph NW14.8 kmh NW 11.2 mph18.0 kmh 28.91 in979.0 mb 0.00 in0.0 mm 0.00 in/hr0.0 mm/hr 0.00 in0.0 mm
12:37 PM 104.2°F40.1°C 72.6°F22.6°C 37% 3.1 mph NW5.0 kmh NW 10.1 mph16.3 kmh 28.91 in979.0 mb 0.00 in0.0 mm 0.00 in/hr0.0 mm/hr 0.00 in0.0 mm
12:36 PM 103.8°F39.9°C 72.3°F22.4°C 37% 1.1 mph NW1.8 kmh NW 10.1 mph16.3 kmh 28.91 in979.0 mb 0.00 in0.0 mm 0.00 in/hr0.0 mm/hr 0.00 in0.0 mm
12:35 PM 103.8°F39.9°C 72.3°F22.4°C 37% Calm Calm 10.1 mph16.3 kmh 28.91 in979.0 mb 0.00 in0.0 mm 0.00 in/hr0.0 mm/hr 0.00 in0.0 mm
12:34 PM 103.8°F39.9°C 72.3°F22.4°C 37% 0.9 mph NW1.4 kmh NW 10.1 mph16.3 kmh 28.91 in979.0 mb 0.00 in0.0 mm 0.00 in/hr0.0 mm/hr 0.00 in0.0 mm
12:33 PM 103.6°F39.8°C 73.0°F22.8°C 38% 7.8 mph NW12.6 kmh NW 10.1 mph16.3 kmh 28.91 in979.0 mb 0.00 in0.0 mm 0.00 in/hr0.0 mm/hr 0.00 in0.0 mm
12:32 PM 103.5°F39.7°C 72.8°F22.7°C 38% 5.8 mph NW9.3 kmh NW 10.1 mph16.3 kmh 28.91 in979.0 mb 0.00 in0.0 mm 0.00 in/hr0.0 mm/hr 0.00 in0.0 mm
12:31 PM 103.3°F39.6°C 72.7°F22.6°C 38% 0.9 mph NW1.4 kmh NW 10.1 mph16.3 kmh 28.91 in979.0 mb 0.00 in0.0 mm 0.00 in/hr0.0 mm/hr 0.00 in0.0 mm
12:30 PM 103.1°F39.5°C 72.5°F22.5°C 38% 3.8 mph NW6.1 kmh NW 10.1 mph16.3 kmh 28.91 in979.0 mb 0.00 in0.0 mm 0.00 in/hr0.0 mm/hr 0.00 in0.0 mm
12:29 PM 102.9°F39.4°C 72.4°F22.4°C 38% 3.6 mph NW5.8 kmh NW 10.1 mph16.3 kmh 28.90 in978.7 mb 0.00 in0.0 mm 0.00 in/hr0.0 mm/hr 0.00 in0.0 mm
12:28 PM 102.9°F39.4°C 72.4°F22.4°C 38% 6.7 mph NW10.8 kmh NW 10.1 mph16.3 kmh 28.90 in978.7 mb 0.00 in0.0 mm 0.00 in/hr0.0 mm/hr 0.00 in0.0 mm
12:27 PM 102.7°F39.3°C 72.2°F22.3°C 38% 2.7 mph W4.3 kmh W 6.9 mph11.1 kmh 28.91 in979.0 mb 0.00 in0.0 mm 0.00 in/hr0.0 mm/hr 0.00 in0.0 mm
12:26 PM 102.6°F39.2°C 72.0°F22.2°C 38% Calm Calm 6.9 mph11.1 kmh 28.91 in979.0 mb 0.00 in0.0 mm 0.00 in/hr0.0 mm/hr 0.00 in0.0 mm
12:25 PM 102.4°F39.1°C 71.9°F22.2°C 38% Calm Calm 8.1 mph13.0 kmh 28.91 in979.0 mb 0.00 in0.0 mm 0.00 in/hr0.0 mm/hr 0.00 in0.0 mm
12:24 PM 102.4°F39.1°C 71.9°F22.2°C 38% Calm Calm 8.1 mph13.0 kmh 28.91 in979.0 mb 0.00 in0.0 mm 0.00 in/hr0.0 mm/hr 0.00 in0.0 mm
12:23 PM 102.0°F38.9°C 71.5°F21.9°C 38% Calm Calm 10.1 mph16.3 kmh 28.91 in979.0 mb 0.00 in0.0 mm 0.00 in/hr0.0 mm/hr 0.00 in0.0 mm
12:22 PM 102.0°F38.9°C 71.5°F21.9°C 38% Calm Calm 10.1 mph16.3 kmh 28.91 in979.0 mb 0.00 in0.0 mm 0.00 in/hr0.0 mm/hr 0.00 in0.0 mm
12:21 PM 102.0°F38.9°C 71.5°F21.9°C 38% 3.1 mph NW5.0 kmh NW 10.1 mph16.3 kmh 28.91 in979.0 mb 0.00 in0.0 mm 0.00 in/hr0.0 mm/hr 0.00 in0.0 mm
12:20 PM 101.8°F38.8°C 72.2°F22.3°C 39% 1.3 mph NW2.1 kmh NW 10.1 mph16.3 kmh 28.91 in979.0 mb 0.00 in0.0 mm 0.00 in/hr0.0 mm/hr 0.00 in0.0 mm
12:19 PM 101.8°F38.8°C 72.2°F22.3°C 39% 6.0 mph NW9.7 kmh NW 10.1 mph16.3 kmh 28.91 in979.0 mb 0.00 in0.0 mm 0.00 in/hr0.0 mm/hr 0.00 in0.0 mm
12:18 PM 101.7°F38.7°C 72.1°F22.3°C 39% 3.1 mph NW5.0 kmh NW 10.1 mph16.3 kmh 28.91 in979.0 mb 0.00 in0.0 mm 0.00 in/hr0.0 mm/hr 0.00 in0.0 mm
12:17 PM 101.5°F38.6°C 71.9°F22.2°C 39% 2.2 mph NW3.5 kmh NW 10.1 mph16.3 kmh 28.91 in979.0 mb 0.00 in0.0 mm 0.00 in/hr0.0 mm/hr 0.00 in0.0 mm
12:16 PM 101.3°F38.5°C 71.7°F22.1°C 39% 6.3 mph NW10.1 kmh NW 10.1 mph16.3 kmh 28.91 in979.0 mb 0.00 in0.0 mm 0.00 in/hr0.0 mm/hr 0.00 in0.0 mm
12:15 PM 101.1°F38.4°C 71.6°F22.0°C 39% 5.6 mph NW9.0 kmh NW 10.1 mph16.3 kmh 28.91 in979.0 mb 0.00 in0.0 mm 0.00 in/hr0.0 mm/hr 0.00 in0.0 mm
12:14 PM 100.9°F38.3°C 71.4°F21.9°C 39% 0.9 mph NW1.4 kmh NW 10.1 mph16.3 kmh 28.91 in979.0 mb 0.00 in0.0 mm 0.00 in/hr0.0 mm/hr 0.00 in0.0 mm
12:13 PM 100.8°F38.2°C 71.3°F21.8°C 39% 10.1 mph NW16.3 kmh NW 10.1 mph16.3 kmh 28.91 in979.0 mb 0.00 in0.0 mm 0.00 in/hr0.0 mm/hr 0.00 in0.0 mm
12:12 PM 100.4°F38.0°C 71.0°F21.7°C 39% 4.5 mph NW7.2 kmh NW 9.6 mph15.4 kmh 28.91 in979.0 mb 0.00 in0.0 mm 0.00 in/hr0.0 mm/hr 0.00 in0.0 mm
12:11 PM 100.2°F37.9°C 71.6°F22.0°C 40% 9.6 mph NW15.4 kmh NW 9.6 mph15.4 kmh 28.91 in979.0 mb 0.00 in0.0 mm 0.00 in/hr0.0 mm/hr 0.00 in0.0 mm
12:10 PM 99.9°F37.7°C 71.3°F21.8°C 40% Calm Calm 9.2 mph14.8 kmh 28.91 in979.0 mb 0.00 in0.0 mm 0.00 in/hr0.0 mm/hr 0.00 in0.0 mm
12:09 PM 99.7°F37.6°C 71.0°F21.7°C 40% 3.6 mph NNW5.8 kmh NNW 9.2 mph14.8 kmh 28.91 in979.0 mb 0.00 in0.0 mm 0.00 in/hr0.0 mm/hr 0.00 in0.0 mm
12:08 PM 99.5°F37.5°C 71.0°F21.7°C 40% Calm Calm 9.2 mph14.8 kmh 28.91 in979.0 mb 0.00 in0.0 mm 0.00 in/hr0.0 mm/hr 0.00 in0.0 mm
12:07 PM 99.1°F37.3°C 70.6°F21.4°C 40% 2.5 mph N4.0 kmh N 9.2 mph14.8 kmh 28.91 in979.0 mb 0.00 in0.0 mm 0.00 in/hr0.0 mm/hr 0.00 in0.0 mm
12:06 PM 99.0°F37.2°C 70.5°F21.4°C 40% 4.9 mph N7.9 kmh N 9.2 mph14.8 kmh 28.91 in979.0 mb 0.00 in0.0 mm 0.00 in/hr0.0 mm/hr 0.00 in0.0 mm
12:05 PM 98.6°F37.0°C 70.2°F21.2°C 40% Calm Calm 8.3 mph13.4 kmh 28.91 in979.0 mb 0.00 in0.0 mm 0.00 in/hr0.0 mm/hr 0.00 in0.0 mm
12:04 PM 98.4°F36.9°C 70.0°F21.1°C 40% Calm Calm 8.3 mph13.4 kmh 28.91 in979.0 mb 0.00 in0.0 mm 0.00 in/hr0.0 mm/hr 0.00 in0.0 mm
12:03 PM 98.2°F36.8°C 69.8°F21.0°C 40% 4.3 mph N6.9 kmh N 8.3 mph13.4 kmh 28.91 in979.0 mb 0.00 in0.0 mm 0.00 in/hr0.0 mm/hr 0.00 in0.0 mm
12:02 PM 97.9°F36.6°C 69.5°F20.8°C 40% Calm Calm 9.2 mph14.8 kmh 28.91 in979.0 mb 0.00 in0.0 mm 0.00 in/hr0.0 mm/hr 0.00 in0.0 mm
12:01 PM 97.7°F36.5°C 69.3°F20.7°C 40% Calm Calm 9.2 mph14.8 kmh 28.91 in979.0 mb 0.00 in0.0 mm 0.00 in/hr0.0 mm/hr 0.00 in0.0 mm
12:00 PM 97.5°F36.4°C 69.2°F20.7°C 40% 3.4 mph N5.5 kmh N 9.2 mph14.8 kmh 28.91 in979.0 mb 0.00 in0.0 mm 0.00 in/hr0.0 mm/hr 0.00 in0.0 mm
11:59 AM 97.3°F36.3°C 69.7°F20.9°C 41% 6.7 mph N10.8 kmh N 9.2 mph14.8 kmh 28.91 in979.0 mb 0.00 in0.0 mm 0.00 in/hr0.0 mm/hr 0.00 in0.0 mm
11:58 AM 97.0°F36.1°C 69.4°F20.8°C 41% 5.4 mph N8.7 kmh N 9.2 mph14.8 kmh 28.91 in979.0 mb 0.00 in0.0 mm 0.00 in/hr0.0 mm/hr 0.00 in0.0 mm
11:57 AM 97.0°F36.1°C 69.4°F20.8°C 41% 2.7 mph N4.3 kmh N 9.2 mph14.8 kmh 28.91 in979.0 mb 0.00 in0.0 mm 0.00 in/hr0.0 mm/hr 0.00 in0.0 mm
11:56 AM 96.6°F35.9°C 69.0°F20.6°C 41% Calm Calm 9.2 mph14.8 kmh 28.91 in979.0 mb 0.00 in0.0 mm 0.00 in/hr0.0 mm/hr 0.00 in0.0 mm
11:55 AM 96.6°F35.9°C 68.4°F20.2°C 40% 6.5 mph NNE10.5 kmh NNE 9.2 mph14.8 kmh 28.91 in979.0 mb 0.00 in0.0 mm 0.00 in/hr0.0 mm/hr 0.00 in0.0 mm
11:54 AM 96.6°F35.9°C 68.4°F20.2°C 40% 4.7 mph NNE7.6 kmh NNE 9.2 mph14.8 kmh 28.91 in979.0 mb 0.00 in0.0 mm 0.00 in/hr0.0 mm/hr 0.00 in0.0 mm
11:53 AM 96.6°F35.9°C 69.0°F20.6°C 41% 9.2 mph NE14.8 kmh NE 9.2 mph14.8 kmh 28.91 in979.0 mb 0.00 in0.0 mm 0.00 in/hr0.0 mm/hr 0.00 in0.0 mm
11:52 AM 96.4°F35.8°C 68.9°F20.5°C 41% 3.1 mph NE5.0 kmh NE 8.1 mph13.0 kmh 28.91 in979.0 mb 0.00 in0.0 mm 0.00 in/hr0.0 mm/hr 0.00 in0.0 mm
11:51 AM 96.4°F35.8°C 68.9°F20.5°C 41% 2.0 mph NNE3.2 kmh NNE 8.7 mph14.0 kmh 28.91 in979.0 mb 0.00 in0.0 mm 0.00 in/hr0.0 mm/hr 0.00 in0.0 mm
11:50 AM 96.1°F35.6°C 68.6°F20.3°C 41% 3.4 mph NNE5.5 kmh NNE 8.7 mph14.0 kmh 28.91 in979.0 mb 0.00 in0.0 mm 0.00 in/hr0.0 mm/hr 0.00 in0.0 mm
11:49 AM 96.1°F35.6°C 68.6°F20.3°C 41% 4.3 mph NE6.9 kmh NE 8.7 mph14.0 kmh 28.91 in979.0 mb 0.00 in0.0 mm 0.00 in/hr0.0 mm/hr 0.00 in0.0 mm
11:48 AM 95.9°F35.5°C 68.4°F20.2°C 41% Calm Calm 8.7 mph14.0 kmh 28.91 in979.0 mb 0.00 in0.0 mm 0.00 in/hr0.0 mm/hr 0.00 in0.0 mm
11:47 AM 95.7°F35.4°C 68.2°F20.1°C 41% Calm Calm 8.7 mph14.0 kmh 28.91 in979.0 mb 0.00 in0.0 mm 0.00 in/hr0.0 mm/hr 0.00 in0.0 mm
11:46 AM 95.7°F35.4°C 68.2°F20.1°C 41% 3.1 mph NE5.0 kmh NE 8.7 mph14.0 kmh 28.91 in979.0 mb 0.00 in0.0 mm 0.00 in/hr0.0 mm/hr 0.00 in0.0 mm
11:45 AM 95.7°F35.4°C 68.2°F20.1°C 41% 5.1 mph NE8.2 kmh NE 9.8 mph15.8 kmh 28.91 in979.0 mb 0.00 in0.0 mm 0.00 in/hr0.0 mm/hr 0.00 in0.0 mm
11:44 AM 95.9°F35.5°C 68.4°F20.2°C 41% Calm Calm 9.8 mph15.8 kmh 28.91 in979.0 mb 0.00 in0.0 mm 0.00 in/hr0.0 mm/hr 0.00 in0.0 mm
11:43 AM 95.9°F35.5°C 68.4°F20.2°C 41% 2.0 mph NE3.2 kmh NE 14.3 mph23.0 kmh 28.91 in979.0 mb 0.00 in0.0 mm 0.00 in/hr0.0 mm/hr 0.00 in0.0 mm
11:42 AM 96.1°F35.6°C 68.6°F20.3°C 41% 8.7 mph NE14.0 kmh NE 14.3 mph23.0 kmh 28.91 in979.0 mb 0.00 in0.0 mm 0.00 in/hr0.0 mm/hr 0.00 in0.0 mm
11:41 AM 96.1°F35.6°C 68.6°F20.3°C 41% 2.0 mph NE3.2 kmh NE 14.3 mph23.0 kmh 28.91 in979.0 mb 0.00 in0.0 mm 0.00 in/hr0.0 mm/hr 0.00 in0.0 mm
11:40 AM 96.1°F35.6°C 68.6°F20.3°C 41% 5.4 mph NE8.7 kmh NE 14.3 mph23.0 kmh 28.91 in979.0 mb 0.00 in0.0 mm 0.00 in/hr0.0 mm/hr 0.00 in0.0 mm
11:39 AM 96.1°F35.6°C 68.6°F20.3°C 41% 4.0 mph NNE6.4 kmh NNE 14.3 mph23.0 kmh 28.91 in979.0 mb 0.00 in0.0 mm 0.00 in/hr0.0 mm/hr 0.00 in0.0 mm
11:38 AM 96.1°F35.6°C 68.6°F20.3°C 41% Calm Calm 14.3 mph23.0 kmh 28.91 in979.0 mb 0.00 in0.0 mm 0.00 in/hr0.0 mm/hr 0.00 in0.0 mm
11:37 AM 96.1°F35.6°C 68.6°F20.3°C 41% Calm Calm 14.3 mph23.0 kmh 28.91 in979.0 mb 0.00 in0.0 mm 0.00 in/hr0.0 mm/hr 0.00 in0.0 mm
11:36 AM 96.1°F35.6°C 68.6°F20.3°C 41% 2.2 mph NNE3.5 kmh NNE 14.3 mph23.0 kmh 28.91 in979.0 mb 0.00 in0.0 mm 0.00 in/hr0.0 mm/hr 0.00 in0.0 mm
11:35 AM 96.1°F35.6°C 68.6°F20.3°C 41% 6.9 mph NNE11.1 kmh NNE 14.3 mph23.0 kmh 28.91 in979.0 mb 0.00 in0.0 mm 0.00 in/hr0.0 mm/hr 0.00 in0.0 mm
11:34 AM 96.1°F35.6°C 68.6°F20.3°C 41% 4.9 mph N7.9 kmh N 14.3 mph23.0 kmh 28.91 in979.0 mb 0.00 in0.0 mm 0.00 in/hr0.0 mm/hr 0.00 in0.0 mm
11:33 AM 96.1°F35.6°C 68.6°F20.3°C 41% Calm Calm 9.2 mph14.8 kmh 28.91 in979.0 mb 0.00 in0.0 mm 0.00 in/hr0.0 mm/hr 0.00 in0.0 mm
11:32 AM 96.1°F35.6°C 68.6°F20.3°C 41% 3.1 mph N5.0 kmh N 11.6 mph18.7 kmh 28.91 in979.0 mb 0.00 in0.0 mm 0.00 in/hr0.0 mm/hr 0.00 in0.0 mm
11:31 AM 95.9°F35.5°C 68.4°F20.2°C 41% 5.8 mph N9.3 kmh N 11.6 mph18.7 kmh 28.92 in979.3 mb 0.00 in0.0 mm 0.00 in/hr0.0 mm/hr 0.00 in0.0 mm
11:30 AM 95.9°F35.5°C 68.4°F20.2°C 41% Calm Calm 11.6 mph18.7 kmh 28.91 in979.0 mb 0.00 in0.0 mm 0.00 in/hr0.0 mm/hr 0.00 in0.0 mm
11:29 AM 95.9°F35.5°C 68.4°F20.2°C 41% Calm Calm 11.6 mph18.7 kmh 28.91 in979.0 mb 0.00 in0.0 mm 0.00 in/hr0.0 mm/hr 0.00 in0.0 mm
11:28 AM 95.9°F35.5°C 68.4°F20.2°C 41% 2.9 mph NNW4.7 kmh NNW 11.6 mph18.7 kmh 28.91 in979.0 mb 0.00 in0.0 mm 0.00 in/hr0.0 mm/hr 0.00 in0.0 mm
11:27 AM 95.9°F35.5°C 68.4°F20.2°C 41% Calm Calm 11.6 mph18.7 kmh 28.91 in979.0 mb 0.00 in0.0 mm 0.00 in/hr0.0 mm/hr 0.00 in0.0 mm
11:26 AM 95.7°F35.4°C 68.9°F20.5°C 42% 2.9 mph NW4.7 kmh NW 11.6 mph18.7 kmh 28.91 in979.0 mb 0.00 in0.0 mm 0.00 in/hr0.0 mm/hr 0.00 in0.0 mm
11:25 AM 95.7°F35.4°C 68.9°F20.5°C 42% 4.5 mph NW7.2 kmh NW 11.6 mph18.7 kmh 28.91 in979.0 mb 0.00 in0.0 mm 0.00 in/hr0.0 mm/hr 0.00 in0.0 mm
11:24 AM 95.7°F35.4°C 68.9°F20.5°C 42% 2.5 mph NW4.0 kmh NW 12.1 mph19.5 kmh 28.91 in979.0 mb 0.00 in0.0 mm 0.00 in/hr0.0 mm/hr 0.00 in0.0 mm
11:23 AM 95.7°F35.4°C 68.9°F20.5°C 42% 6.3 mph NW10.1 kmh NW 12.1 mph19.5 kmh 28.91 in979.0 mb 0.00 in0.0 mm 0.00 in/hr0.0 mm/hr 0.00 in0.0 mm
11:22 AM 95.7°F35.4°C 68.9°F20.5°C 42% 7.4 mph NW11.9 kmh NW 12.1 mph19.5 kmh 28.91 in979.0 mb 0.00 in0.0 mm 0.00 in/hr0.0 mm/hr 0.00 in0.0 mm
11:21 AM 95.5°F35.3°C 68.7°F20.4°C 42% 4.9 mph NNW7.9 kmh NNW 12.1 mph19.5 kmh 28.91 in979.0 mb 0.00 in0.0 mm 0.00 in/hr0.0 mm/hr 0.00 in0.0 mm
11:20 AM 95.5°F35.3°C 68.7°F20.4°C 42% Calm Calm 12.1 mph19.5 kmh 28.91 in979.0 mb 0.00 in0.0 mm 0.00 in/hr0.0 mm/hr 0.00 in0.0 mm
11:19 AM 95.5°F35.3°C 68.7°F20.4°C 42% 3.4 mph NW5.5 kmh NW 12.1 mph19.5 kmh 28.91 in979.0 mb 0.00 in0.0 mm 0.00 in/hr0.0 mm/hr 0.00 in0.0 mm
11:18 AM 95.5°F35.3°C 68.7°F20.4°C 42% 5.1 mph NW8.2 kmh NW 12.1 mph19.5 kmh 28.91 in979.0 mb 0.00 in0.0 mm 0.00 in/hr0.0 mm/hr 0.00 in0.0 mm
11:17 AM 95.5°F35.3°C 68.7°F20.4°C 42% 9.6 mph NW15.4 kmh NW 12.1 mph19.5 kmh 28.91 in979.0 mb 0.00 in0.0 mm 0.00 in/hr0.0 mm/hr 0.00 in0.0 mm
11:16 AM 95.5°F35.3°C 68.7°F20.4°C 42% 8.3 mph NNW13.4 kmh NNW 12.1 mph19.5 kmh 28.91 in979.0 mb 0.00 in0.0 mm 0.00 in/hr0.0 mm/hr 0.00 in0.0 mm
11:15 AM 95.5°F35.3°C 68.7°F20.4°C 42% 6.5 mph NNW10.5 kmh NNW 12.1 mph19.5 kmh 28.91 in979.0 mb 0.00 in0.0 mm 0.00 in/hr0.0 mm/hr 0.00 in0.0 mm
11:14 AM 95.5°F35.3°C 68.7°F20.4°C 42% 0.7 mph NNW1.1 kmh NNW 9.4 mph15.1 kmh 28.91 in979.0 mb 0.00 in0.0 mm 0.00 in/hr0.0 mm/hr 0.00 in0.0 mm
11:13 AM 95.5°F35.3°C 68.7°F20.4°C 42% 4.3 mph NNW6.9 kmh NNW 9.4 mph15.1 kmh 28.91 in979.0 mb 0.00 in0.0 mm 0.00 in/hr0.0 mm/hr 0.00 in0.0 mm
11:12 AM 95.5°F35.3°C 68.7°F20.4°C 42% 2.9 mph NNW4.7 kmh NNW 9.4 mph15.1 kmh 28.91 in979.0 mb 0.00 in0.0 mm 0.00 in/hr0.0 mm/hr 0.00 in0.0 mm
11:11 AM 95.5°F35.3°C 68.7°F20.4°C 42% Calm Calm 9.4 mph15.1 kmh 28.91 in979.0 mb 0.00 in0.0 mm 0.00 in/hr0.0 mm/hr 0.00 in0.0 mm
11:10 AM 95.4°F35.2°C 69.2°F20.7°C 43% 2.9 mph NNW4.7 kmh NNW 9.4 mph15.1 kmh 28.91 in979.0 mb 0.00 in0.0 mm 0.00 in/hr0.0 mm/hr 0.00 in0.0 mm
11:09 AM 95.2°F35.1°C 69.1°F20.6°C 43% 6.9 mph NNW11.1 kmh NNW 9.4 mph15.1 kmh 28.91 in979.0 mb 0.00 in0.0 mm 0.00 in/hr0.0 mm/hr 0.00 in0.0 mm
11:08 AM 95.2°F35.1°C 69.1°F20.6°C 43% 7.8 mph NNW12.6 kmh NNW 9.4 mph15.1 kmh 28.91 in979.0 mb 0.00 in0.0 mm 0.00 in/hr0.0 mm/hr 0.00 in0.0 mm
11:07 AM 94.8°F34.9°C 68.7°F20.4°C 43% 3.1 mph NNW5.0 kmh NNW 8.1 mph13.0 kmh 28.91 in979.0 mb 0.00 in0.0 mm 0.00 in/hr0.0 mm/hr 0.00 in0.0 mm
11:06 AM 94.8°F34.9°C 68.7°F20.4°C 43% 4.3 mph NW6.9 kmh NW 8.1 mph13.0 kmh 28.91 in979.0 mb 0.00 in0.0 mm 0.00 in/hr0.0 mm/hr 0.00 in0.0 mm
11:05 AM 94.8°F34.9°C 69.4°F20.8°C 43% 4.0 mph NW6.4 kmh NW 8.1 mph13.0 kmh 28.91 in979.0 mb 0.00 in0.0 mm 0.00 in/hr0.0 mm/hr 0.00 in0.0 mm
11:04 AM 94.8°F34.9°C 69.4°F20.8°C 44% 1.8 mph NW2.9 kmh NW 8.1 mph13.0 kmh 28.91 in979.0 mb 0.00 in0.0 mm 0.00 in/hr0.0 mm/hr 0.00 in0.0 mm
11:03 AM 94.6°F34.8°C 69.2°F20.7°C 44% 1.3 mph NW2.1 kmh NW 7.6 mph12.2 kmh 28.91 in979.0 mb 0.00 in0.0 mm 0.00 in/hr0.0 mm/hr 0.00 in0.0 mm
11:02 AM 94.6°F34.8°C 69.2°F20.7°C 44% 7.4 mph NW11.9 kmh NW 7.6 mph12.2 kmh 28.91 in979.0 mb 0.00 in0.0 mm 0.00 in/hr0.0 mm/hr 0.00 in0.0 mm
11:01 AM 94.3°F34.6°C 68.9°F20.5°C 44% Calm Calm 7.6 mph12.2 kmh 28.91 in979.0 mb 0.00 in0.0 mm 0.00 in/hr0.0 mm/hr 0.00 in0.0 mm
11:00 AM 94.1°F34.5°C 68.7°F20.4°C 44% Calm Calm 7.6 mph12.2 kmh 28.91 in979.0 mb 0.00 in0.0 mm 0.00 in/hr0.0 mm/hr 0.00 in0.0 mm
10:59 AM 93.9°F34.4°C 68.6°F20.3°C 44% 2.0 mph NW3.2 kmh NW 7.6 mph12.2 kmh 28.91 in979.0 mb 0.00 in0.0 mm 0.00 in/hr0.0 mm/hr 0.00 in0.0 mm
10:58 AM 93.9°F34.4°C 68.6°F20.3°C 44% 3.8 mph NW6.1 kmh NW 7.6 mph12.2 kmh 28.91 in979.0 mb 0.00 in0.0 mm 0.00 in/hr0.0 mm/hr 0.00 in0.0 mm
10:57 AM 93.9°F34.4°C 68.6°F20.3°C 44% 3.4 mph NW5.5 kmh NW 6.0 mph9.7 kmh 28.91 in979.0 mb 0.00 in0.0 mm 0.00 in/hr0.0 mm/hr 0.00 in0.0 mm
10:56 AM 93.7°F34.3°C 68.4°F20.2°C 44% 3.4 mph NW5.5 kmh NW 6.0 mph9.7 kmh 28.91 in979.0 mb 0.00 in0.0 mm 0.00 in/hr0.0 mm/hr 0.00 in0.0 mm
10:55 AM 93.7°F34.3°C 68.4°F20.2°C 44% Calm Calm 6.0 mph9.7 kmh 28.91 in979.0 mb 0.00 in0.0 mm 0.00 in/hr0.0 mm/hr 0.00 in0.0 mm
10:54 AM 93.6°F34.2°C 68.2°F20.1°C 44% 1.1 mph NW1.8 kmh NW 6.0 mph9.7 kmh 28.92 in979.3 mb 0.00 in0.0 mm 0.00 in/hr0.0 mm/hr 0.00 in0.0 mm
10:53 AM 93.6°F34.2°C 68.2°F20.1°C 44% Calm Calm 6.0 mph9.7 kmh 28.92 in979.3 mb 0.00 in0.0 mm 0.00 in/hr0.0 mm/hr 0.00 in0.0 mm
10:52 AM 93.6°F34.2°C 68.2°F20.1°C 44% 1.1 mph NW1.8 kmh NW 6.0 mph9.7 kmh 28.92 in979.3 mb 0.00 in0.0 mm 0.00 in/hr0.0 mm/hr 0.00 in0.0 mm
10:51 AM 93.6°F34.2°C 68.2°F20.1°C 44% Calm Calm 5.6 mph9.0 kmh 28.92 in979.3 mb 0.00 in0.0 mm 0.00 in/hr0.0 mm/hr 0.00 in0.0 mm
10:50 AM 93.4°F34.1°C 68.1°F20.1°C 44% Calm Calm 5.6 mph9.0 kmh 28.92 in979.3 mb 0.00 in0.0 mm 0.00 in/hr0.0 mm/hr 0.00 in0.0 mm
10:49 AM 93.4°F34.1°C 68.1°F20.1°C 44% Calm Calm 5.6 mph9.0 kmh 28.91 in979.0 mb 0.00 in0.0 mm 0.00 in/hr0.0 mm/hr 0.00 in0.0 mm
10:48 AM 93.4°F34.1°C 68.1°F20.1°C 44% Calm Calm 5.6 mph9.0 kmh 28.92 in979.3 mb 0.00 in0.0 mm 0.00 in/hr0.0 mm/hr 0.00 in0.0 mm
10:47 AM 93.2°F34.0°C 67.9°F19.9°C 44% 3.8 mph NNW6.1 kmh NNW 5.6 mph9.0 kmh 28.91 in979.0 mb 0.00 in0.0 mm 0.00 in/hr0.0 mm/hr 0.00 in0.0 mm
10:46 AM 93.0°F33.9°C 67.7°F19.8°C 44% 3.6 mph N5.8 kmh N 6.9 mph11.1 kmh 28.91 in979.0 mb 0.00 in0.0 mm 0.00 in/hr0.0 mm/hr 0.00 in0.0 mm
10:45 AM 93.0°F33.9°C 67.7°F19.8°C 44% 5.1 mph N8.2 kmh N 8.3 mph13.4 kmh 28.92 in979.3 mb 0.00 in0.0 mm 0.00 in/hr0.0 mm/hr 0.00 in0.0 mm
10:44 AM 93.0°F33.9°C 67.7°F19.8°C 44% Calm Calm 8.3 mph13.4 kmh 28.91 in979.0 mb 0.00 in0.0 mm 0.00 in/hr0.0 mm/hr 0.00 in0.0 mm
10:43 AM 93.0°F33.9°C 67.7°F19.8°C 44% Calm Calm 8.3 mph13.4 kmh 28.91 in979.0 mb 0.00 in0.0 mm 0.00 in/hr0.0 mm/hr 0.00 in0.0 mm
10:42 AM 93.0°F33.9°C 67.7°F19.8°C 44% Calm Calm 8.3 mph13.4 kmh 28.91 in979.0 mb 0.00 in0.0 mm 0.00 in/hr0.0 mm/hr 0.00 in0.0 mm
10:41 AM 93.0°F33.9°C 68.4°F20.2°C 45% Calm Calm 8.3 mph13.4 kmh 28.91 in979.0 mb 0.00 in0.0 mm 0.00 in/hr0.0 mm/hr 0.00 in0.0 mm
10:40 AM 93.0°F33.9°C 68.4°F20.2°C 45% Calm Calm 8.3 mph13.4 kmh 28.91 in979.0 mb 0.00 in0.0 mm 0.00 in/hr0.0 mm/hr 0.00 in0.0 mm
10:39 AM 93.0°F33.9°C 68.4°F20.2°C 45% Calm Calm 8.3 mph13.4 kmh 28.91 in979.0 mb 0.00 in0.0 mm 0.00 in/hr0.0 mm/hr 0.00 in0.0 mm
10:38 AM 93.0°F33.9°C 68.4°F20.2°C 45% Calm Calm 8.3 mph13.4 kmh 28.91 in979.0 mb 0.00 in0.0 mm 0.00 in/hr0.0 mm/hr 0.00 in0.0 mm
10:37 AM 93.0°F33.9°C 68.4°F20.2°C 45% 2.9 mph N4.7 kmh N 8.3 mph13.4 kmh 28.91 in979.0 mb 0.00 in0.0 mm 0.00 in/hr0.0 mm/hr 0.00 in0.0 mm
10:36 AM 93.0°F33.9°C 68.4°F20.2°C 45% 6.9 mph NNW11.1 kmh NNW 8.3 mph13.4 kmh 28.91 in979.0 mb 0.00 in0.0 mm 0.00 in/hr0.0 mm/hr 0.00 in0.0 mm
10:35 AM 93.0°F33.9°C 68.4°F20.2°C 45% 7.8 mph NW12.6 kmh NW 7.8 mph12.6 kmh 28.92 in979.3 mb 0.00 in0.0 mm 0.00 in/hr0.0 mm/hr 0.00 in0.0 mm
10:34 AM 93.0°F33.9°C 68.4°F20.2°C 45% Calm Calm 5.6 mph9.0 kmh 28.92 in979.3 mb 0.00 in0.0 mm 0.00 in/hr0.0 mm/hr 0.00 in0.0 mm
10:33 AM 93.0°F33.9°C 68.4°F20.2°C 45% Calm Calm 5.6 mph9.0 kmh 28.92 in979.3 mb 0.00 in0.0 mm 0.00 in/hr0.0 mm/hr 0.00 in0.0 mm
10:32 AM 92.8°F33.8°C 68.2°F20.1°C 45% Calm Calm 7.2 mph11.6 kmh 28.92 in979.3 mb 0.00 in0.0 mm 0.00 in/hr0.0 mm/hr 0.00 in0.0 mm
10:31 AM 92.8°F33.8°C 68.2°F20.1°C 45% 1.8 mph NNW2.9 kmh NNW 7.2 mph11.6 kmh 28.92 in979.3 mb 0.00 in0.0 mm 0.00 in/hr0.0 mm/hr 0.00 in0.0 mm
10:30 AM 92.8°F33.8°C 68.2°F20.1°C 45% Calm Calm 7.2 mph11.6 kmh 28.92 in979.3 mb 0.00 in0.0 mm 0.00 in/hr0.0 mm/hr 0.00 in0.0 mm
10:29 AM 92.8°F33.8°C 68.2°F20.1°C 45% Calm Calm 7.2 mph11.6 kmh 28.92 in979.3 mb 0.00 in0.0 mm 0.00 in/hr0.0 mm/hr 0.00 in0.0 mm
10:28 AM 92.7°F33.7°C 68.1°F20.1°C 45% 4.9 mph NNW7.9 kmh NNW 7.8 mph12.6 kmh 28.92 in979.3 mb 0.00 in0.0 mm 0.00 in/hr0.0 mm/hr 0.00 in0.0 mm
10:27 AM 92.7°F33.7°C 68.1°F20.1°C 45% 4.5 mph NNW7.2 kmh NNW 7.8 mph12.6 kmh 28.92 in979.3 mb 0.00 in0.0 mm 0.00 in/hr0.0 mm/hr 0.00 in0.0 mm
10:26 AM 92.5°F33.6°C 67.9°F19.9°C 45% 3.4 mph NNW5.5 kmh NNW 7.8 mph12.6 kmh 28.92 in979.3 mb 0.00 in0.0 mm 0.00 in/hr0.0 mm/hr 0.00 in0.0 mm
10:25 AM 92.5°F33.6°C 67.9°F19.9°C 45% Calm Calm 7.8 mph12.6 kmh 28.92 in979.3 mb 0.00 in0.0 mm 0.00 in/hr0.0 mm/hr 0.00 in0.0 mm
10:24 AM 92.5°F33.6°C 67.9°F19.9°C 45% Calm Calm 7.8 mph12.6 kmh 28.92 in979.3 mb 0.00 in0.0 mm 0.00 in/hr0.0 mm/hr 0.00 in0.0 mm
10:23 AM 92.5°F33.6°C 67.9°F19.9°C 45% 4.3 mph NNW6.9 kmh NNW 7.8 mph12.6 kmh 28.92 in979.3 mb 0.00 in0.0 mm 0.00 in/hr0.0 mm/hr 0.00 in0.0 mm
10:22 AM 92.5°F33.6°C 67.9°F19.9°C 45% 1.1 mph NNW1.8 kmh NNW 7.8 mph12.6 kmh 28.92 in979.3 mb 0.00 in0.0 mm 0.00 in/hr0.0 mm/hr 0.00 in0.0 mm
10:21 AM 92.5°F33.6°C 67.9°F19.9°C 45% 1.8 mph NNW2.9 kmh NNW 7.8 mph12.6 kmh 28.92 in979.3 mb 0.00 in0.0 mm 0.00 in/hr0.0 mm/hr 0.00 in0.0 mm
10:20 AM 92.3°F33.5°C 67.7°F19.8°C 45% 3.8 mph NNW6.1 kmh NNW 7.8 mph12.6 kmh 28.92 in979.3 mb 0.00 in0.0 mm 0.00 in/hr0.0 mm/hr 0.00 in0.0 mm
10:19 AM 92.3°F33.5°C 67.7°F19.8°C 45% 2.0 mph NNW3.2 kmh NNW 8.7 mph14.0 kmh 28.92 in979.3 mb 0.00 in0.0 mm 0.00 in/hr0.0 mm/hr 0.00 in0.0 mm
10:18 AM 92.3°F33.5°C 67.7°F19.8°C 45% 7.8 mph NNW12.6 kmh NNW 8.7 mph14.0 kmh 28.92 in979.3 mb 0.00 in0.0 mm 0.00 in/hr0.0 mm/hr 0.00 in0.0 mm
10:17 AM 92.3°F33.5°C 67.7°F19.8°C 45% 3.1 mph NNW5.0 kmh NNW 8.7 mph14.0 kmh 28.92 in979.3 mb 0.00 in0.0 mm 0.00 in/hr0.0 mm/hr 0.00 in0.0 mm
10:16 AM 92.3°F33.5°C 67.7°F19.8°C 45% Calm Calm 8.7 mph14.0 kmh 28.92 in979.3 mb 0.00 in0.0 mm 0.00 in/hr0.0 mm/hr 0.00 in0.0 mm
10:15 AM 92.3°F33.5°C 67.7°F19.8°C 45% Calm Calm 8.7 mph14.0 kmh 28.92 in979.3 mb 0.00 in0.0 mm 0.00 in/hr0.0 mm/hr 0.00 in0.0 mm
10:14 AM 92.3°F33.5°C 67.7°F19.8°C 45% 4.5 mph NW7.2 kmh NW 8.7 mph14.0 kmh 28.92 in979.3 mb 0.00 in0.0 mm 0.00 in/hr0.0 mm/hr 0.00 in0.0 mm
10:13 AM 92.3°F33.5°C 68.4°F20.2°C 46% Calm Calm 8.7 mph14.0 kmh 28.92 in979.3 mb 0.00 in0.0 mm 0.00 in/hr0.0 mm/hr 0.00 in0.0 mm
10:12 AM 92.1°F33.4°C 68.2°F20.1°C 46% Calm Calm 8.7 mph14.0 kmh 28.92 in979.3 mb 0.00 in0.0 mm 0.00 in/hr0.0 mm/hr 0.00 in0.0 mm
10:11 AM 92.1°F33.4°C 68.2°F20.1°C 46% 2.5 mph NW4.0 kmh NW 8.7 mph14.0 kmh 28.92 in979.3 mb 0.00 in0.0 mm 0.00 in/hr0.0 mm/hr 0.00 in0.0 mm
10:10 AM 92.1°F33.4°C 68.2°F20.1°C 46% 3.1 mph NW5.0 kmh NW 8.7 mph14.0 kmh 28.92 in979.3 mb 0.00 in0.0 mm 0.00 in/hr0.0 mm/hr 0.00 in0.0 mm
10:09 AM 92.1°F33.4°C 68.2°F20.1°C 46% 1.6 mph NNW2.6 kmh NNW 6.5 mph10.5 kmh 28.92 in979.3 mb 0.00 in0.0 mm 0.00 in/hr0.0 mm/hr 0.00 in0.0 mm
10:08 AM 92.1°F33.4°C 68.2°F20.1°C 46% 2.7 mph NNW4.3 kmh NNW 7.2 mph11.6 kmh 28.92 in979.3 mb 0.00 in0.0 mm 0.00 in/hr0.0 mm/hr 0.00 in0.0 mm
10:07 AM 91.9°F33.3°C 68.1°F20.1°C 46% 3.4 mph NNW5.5 kmh NNW 7.6 mph12.2 kmh 28.92 in979.3 mb 0.00 in0.0 mm 0.00 in/hr0.0 mm/hr 0.00 in0.0 mm
10:06 AM 92.1°F33.4°C 67.6°F19.8°C 45% 4.0 mph NNW6.4 kmh NNW 7.6 mph12.2 kmh 28.92 in979.3 mb 0.00 in0.0 mm 0.00 in/hr0.0 mm/hr 0.00 in0.0 mm
10:05 AM 92.1°F33.4°C 67.6°F19.8°C 45% Calm Calm 7.6 mph12.2 kmh 28.92 in979.3 mb 0.00 in0.0 mm 0.00 in/hr0.0 mm/hr 0.00 in0.0 mm
10:04 AM 92.1°F33.4°C 67.6°F19.8°C 45% 1.6 mph N2.6 kmh N 7.6 mph12.2 kmh 28.92 in979.3 mb 0.00 in0.0 mm 0.00 in/hr0.0 mm/hr 0.00 in0.0 mm
10:03 AM 92.1°F33.4°C 67.6°F19.8°C 45% Calm Calm 7.6 mph12.2 kmh 28.92 in979.3 mb 0.00 in0.0 mm 0.00 in/hr0.0 mm/hr 0.00 in0.0 mm
10:02 AM 92.1°F33.4°C 68.2°F20.1°C 46% 3.8 mph NNW6.1 kmh NNW 7.6 mph12.2 kmh 28.92 in979.3 mb 0.00 in0.0 mm 0.00 in/hr0.0 mm/hr 0.00 in0.0 mm
10:01 AM 92.1°F33.4°C 68.2°F20.1°C 46% 5.4 mph N8.7 kmh N 7.6 mph12.2 kmh 28.92 in979.3 mb 0.00 in0.0 mm 0.00 in/hr0.0 mm/hr 0.00 in0.0 mm
10:00 AM 92.1°F33.4°C 68.2°F20.1°C 46% 2.7 mph NNW4.3 kmh NNW 7.6 mph12.2 kmh 28.92 in979.3 mb 0.00 in0.0 mm 0.00 in/hr0.0 mm/hr 0.00 in0.0 mm
09:59 AM 92.1°F33.4°C 68.2°F20.1°C 46% 4.5 mph NNW7.2 kmh NNW 7.6 mph12.2 kmh 28.92 in979.3 mb 0.00 in0.0 mm 0.00 in/hr0.0 mm/hr 0.00 in0.0 mm
09:58 AM 92.1°F33.4°C 68.2°F20.1°C 46% 7.6 mph NW12.2 kmh NW 7.6 mph12.2 kmh 28.92 in979.3 mb 0.00 in0.0 mm 0.00 in/hr0.0 mm/hr 0.00 in0.0 mm
09:57 AM 92.1°F33.4°C 68.2°F20.1°C 46% Calm Calm 7.4 mph11.9 kmh 28.92 in979.3 mb 0.00 in0.0 mm 0.00 in/hr0.0 mm/hr 0.00 in0.0 mm
09:56 AM 91.9°F33.3°C 68.1°F20.1°C 46% 2.7 mph NW4.3 kmh NW 7.4 mph11.9 kmh 28.92 in979.3 mb 0.00 in0.0 mm 0.00 in/hr0.0 mm/hr 0.00 in0.0 mm
09:55 AM 91.9°F33.3°C 68.1°F20.1°C 46% 2.9 mph NW4.7 kmh NW 6.9 mph11.1 kmh 28.92 in979.3 mb 0.00 in0.0 mm 0.00 in/hr0.0 mm/hr 0.00 in0.0 mm
09:54 AM 91.9°F33.3°C 68.1°F20.1°C 46% 2.0 mph NW3.2 kmh NW 6.9 mph11.1 kmh 28.91 in979.0 mb 0.00 in0.0 mm 0.00 in/hr0.0 mm/hr 0.00 in0.0 mm
09:53 AM 91.9°F33.3°C 68.1°F20.1°C 46% 2.0 mph NW3.2 kmh NW 6.9 mph11.1 kmh 28.92 in979.3 mb 0.00 in0.0 mm 0.00 in/hr0.0 mm/hr 0.00 in0.0 mm
09:52 AM 92.1°F33.4°C 68.2°F20.1°C 46% 3.8 mph NW6.1 kmh NW 6.9 mph11.1 kmh 28.91 in979.0 mb 0.00 in0.0 mm 0.00 in/hr0.0 mm/hr 0.00 in0.0 mm
09:51 AM 92.1°F33.4°C 68.2°F20.1°C 46% Calm Calm 6.9 mph11.1 kmh 28.91 in979.0 mb 0.00 in0.0 mm 0.00 in/hr0.0 mm/hr 0.00 in0.0 mm
09:50 AM 92.1°F33.4°C 68.2°F20.1°C 46% 5.6 mph NW9.0 kmh NW 6.9 mph11.1 kmh 28.92 in979.3 mb 0.00 in0.0 mm 0.00 in/hr0.0 mm/hr 0.00 in0.0 mm
09:49 AM 92.1°F33.4°C 68.2°F20.1°C 46% 4.0 mph NW6.4 kmh NW 6.9 mph11.1 kmh 28.91 in979.0 mb 0.00 in0.0 mm 0.00 in/hr0.0 mm/hr 0.00 in0.0 mm
09:48 AM 92.1°F33.4°C 68.2°F20.1°C 46% 5.1 mph NNW8.2 kmh NNW 6.9 mph11.1 kmh 28.92 in979.3 mb 0.00 in0.0 mm 0.00 in/hr0.0 mm/hr 0.00 in0.0 mm
09:47 AM 92.1°F33.4°C 68.2°F20.1°C 46% 3.1 mph NNW5.0 kmh NNW 4.9 mph7.9 kmh 28.92 in979.3 mb 0.00 in0.0 mm 0.00 in/hr0.0 mm/hr 0.00 in0.0 mm
09:46 AM 92.1°F33.4°C 68.2°F20.1°C 46% Calm Calm 4.9 mph7.9 kmh 28.92 in979.3 mb 0.00 in0.0 mm 0.00 in/hr0.0 mm/hr 0.00 in0.0 mm
09:45 AM 92.1°F33.4°C 68.2°F20.1°C 46% 3.4 mph NNW5.5 kmh NNW 3.6 mph5.8 kmh 28.91 in979.0 mb 0.00 in0.0 mm 0.00 in/hr0.0 mm/hr 0.00 in0.0 mm
09:44 AM 91.9°F33.3°C 68.1°F20.1°C 46% Calm Calm 3.6 mph5.8 kmh 28.91 in979.0 mb 0.00 in0.0 mm 0.00 in/hr0.0 mm/hr 0.00 in0.0 mm
09:43 AM 91.9°F33.3°C 68.1°F20.1°C 46% Calm Calm 4.7 mph7.6 kmh 28.91 in979.0 mb 0.00 in0.0 mm 0.00 in/hr0.0 mm/hr 0.00 in0.0 mm
09:42 AM 91.9°F33.3°C 68.1°F20.1°C 46% Calm Calm 5.6 mph9.0 kmh 28.91 in979.0 mb 0.00 in0.0 mm 0.00 in/hr0.0 mm/hr 0.00 in0.0 mm
09:41 AM 91.9°F33.3°C 68.1°F20.1°C 46% Calm Calm 5.6 mph9.0 kmh 28.91 in979.0 mb 0.00 in0.0 mm 0.00 in/hr0.0 mm/hr 0.00 in0.0 mm
09:40 AM 91.9°F33.3°C 68.1°F20.1°C 46% Calm Calm 5.6 mph9.0 kmh 28.91 in979.0 mb 0.00 in0.0 mm 0.00 in/hr0.0 mm/hr 0.00 in0.0 mm
09:39 AM 91.8°F33.2°C 67.9°F19.9°C 46% 0.9 mph NNE1.4 kmh NNE 5.6 mph9.0 kmh 28.91 in979.0 mb 0.00 in0.0 mm 0.00 in/hr0.0 mm/hr 0.00 in0.0 mm
09:38 AM 91.8°F33.2°C 68.5°F20.3°C 47% Calm Calm 5.6 mph9.0 kmh 28.91 in979.0 mb 0.00 in0.0 mm 0.00 in/hr0.0 mm/hr 0.00 in0.0 mm
09:37 AM 91.8°F33.2°C 67.9°F19.9°C 46% 1.1 mph NNE1.8 kmh NNE 5.6 mph9.0 kmh 28.91 in979.0 mb 0.00 in0.0 mm 0.00 in/hr0.0 mm/hr 0.00 in0.0 mm
09:36 AM 91.8°F33.2°C 68.5°F20.3°C 47% Calm Calm 5.6 mph9.0 kmh 28.91 in979.0 mb 0.00 in0.0 mm 0.00 in/hr0.0 mm/hr 0.00 in0.0 mm
09:35 AM 91.8°F33.2°C 68.5°F20.3°C 47% Calm Calm 7.2 mph11.6 kmh 28.92 in979.3 mb 0.00 in0.0 mm 0.00 in/hr0.0 mm/hr 0.00 in0.0 mm
09:34 AM 91.6°F33.1°C 68.4°F20.2°C 47% Calm Calm 7.2 mph11.6 kmh 28.91 in979.0 mb 0.00 in0.0 mm 0.00 in/hr0.0 mm/hr 0.00 in0.0 mm
09:33 AM 91.4°F33.0°C 68.2°F20.1°C 47% 4.7 mph N7.6 kmh N 7.2 mph11.6 kmh 28.91 in979.0 mb 0.00 in0.0 mm 0.00 in/hr0.0 mm/hr 0.00 in0.0 mm
09:32 AM 91.4°F33.0°C 68.1°F20.1°C 47% Calm Calm 7.2 mph11.6 kmh 28.91 in979.0 mb 0.00 in0.0 mm 0.00 in/hr0.0 mm/hr 0.00 in0.0 mm
09:31 AM 91.2°F32.9°C 68.1°F20.1°C 47% 2.9 mph N4.7 kmh N 7.2 mph11.6 kmh 28.91 in979.0 mb 0.00 in0.0 mm 0.00 in/hr0.0 mm/hr 0.00 in0.0 mm
09:30 AM 91.2°F32.9°C 68.1°F20.1°C 47% 4.3 mph N6.9 kmh N 7.2 mph11.6 kmh 28.92 in979.3 mb 0.00 in0.0 mm 0.00 in/hr0.0 mm/hr 0.00 in0.0 mm
09:29 AM 91.2°F32.9°C 68.1°F20.1°C 47% Calm Calm 7.2 mph11.6 kmh 28.91 in979.0 mb 0.00 in0.0 mm 0.00 in/hr0.0 mm/hr 0.00 in0.0 mm
09:28 AM 91.2°F32.9°C 68.1°F20.1°C 47% 1.1 mph NNW1.8 kmh NNW 7.2 mph11.6 kmh 28.91 in979.0 mb 0.00 in0.0 mm 0.00 in/hr0.0 mm/hr 0.00 in0.0 mm
09:27 AM 91.2°F32.9°C 68.1°F20.1°C 47% 2.9 mph NNW4.7 kmh NNW 7.4 mph11.9 kmh 28.91 in979.0 mb 0.00 in0.0 mm 0.00 in/hr0.0 mm/hr 0.00 in0.0 mm
09:26 AM 91.2°F32.9°C 68.1°F20.1°C 47% 4.0 mph NNW6.4 kmh NNW 7.4 mph11.9 kmh 28.91 in979.0 mb 0.00 in0.0 mm 0.00 in/hr0.0 mm/hr 0.00 in0.0 mm
09:25 AM 91.0°F32.8°C 67.9°F19.9°C 47% 2.7 mph NW4.3 kmh NW 7.4 mph11.9 kmh 28.91 in979.0 mb 0.00 in0.0 mm 0.00 in/hr0.0 mm/hr 0.00 in0.0 mm
09:24 AM 91.2°F32.9°C 68.1°F20.1°C 47% 5.6 mph NW9.0 kmh NW 7.4 mph11.9 kmh 28.91 in979.0 mb 0.00 in0.0 mm 0.00 in/hr0.0 mm/hr 0.00 in0.0 mm
09:23 AM 91.2°F32.9°C 68.1°F20.1°C 47% Calm Calm 7.6 mph12.2 kmh 28.91 in979.0 mb 0.00 in0.0 mm 0.00 in/hr0.0 mm/hr 0.00 in0.0 mm
09:22 AM 91.2°F32.9°C 68.1°F20.1°C 47% Calm Calm 7.6 mph12.2 kmh 28.91 in979.0 mb 0.00 in0.0 mm 0.00 in/hr0.0 mm/hr 0.00 in0.0 mm
09:21 AM 91.2°F32.9°C 68.1°F20.1°C 47% 1.6 mph NNW2.6 kmh NNW 7.6 mph12.2 kmh 28.91 in979.0 mb 0.00 in0.0 mm 0.00 in/hr0.0 mm/hr 0.00 in0.0 mm
09:20 AM 91.0°F32.8°C 67.9°F19.9°C 47% 6.9 mph NNW11.1 kmh NNW 7.6 mph12.2 kmh 28.91 in979.0 mb 0.00 in0.0 mm 0.00 in/hr0.0 mm/hr 0.00 in0.0 mm
09:19 AM 91.0°F32.8°C 67.9°F19.9°C 47% 2.2 mph NNW3.5 kmh NNW 9.8 mph15.8 kmh 28.91 in979.0 mb 0.00 in0.0 mm 0.00 in/hr0.0 mm/hr 0.00 in0.0 mm
09:18 AM 91.0°F32.8°C 67.9°F19.9°C 47% 4.0 mph NNW6.4 kmh NNW 9.8 mph15.8 kmh 28.91 in979.0 mb 0.00 in0.0 mm 0.00 in/hr0.0 mm/hr 0.00 in0.0 mm
09:17 AM 90.9°F32.7°C 67.7°F19.8°C 47% Calm Calm 9.8 mph15.8 kmh 28.91 in979.0 mb 0.00 in0.0 mm 0.00 in/hr0.0 mm/hr 0.00 in0.0 mm
09:16 AM 90.7°F32.6°C 67.6°F19.8°C 47% Calm Calm 9.8 mph15.8 kmh 28.91 in979.0 mb 0.00 in0.0 mm 0.00 in/hr0.0 mm/hr 0.00 in0.0 mm
09:15 AM 90.7°F32.6°C 68.2°F20.1°C 48% 1.3 mph NNW2.1 kmh NNW 9.8 mph15.8 kmh 28.91 in979.0 mb 0.00 in0.0 mm 0.00 in/hr0.0 mm/hr 0.00 in0.0 mm
09:14 AM 90.7°F32.6°C 68.2°F20.1°C 48% 5.6 mph NNW9.0 kmh NNW 9.8 mph15.8 kmh 28.91 in979.0 mb 0.00 in0.0 mm 0.00 in/hr0.0 mm/hr 0.00 in0.0 mm
09:13 AM 90.5°F32.5°C 68.1°F20.1°C 48% 1.1 mph NNW1.8 kmh NNW 9.8 mph15.8 kmh 28.91 in979.0 mb 0.00 in0.0 mm 0.00 in/hr0.0 mm/hr 0.00 in0.0 mm
09:12 AM 90.3°F32.4°C 67.9°F19.9°C 48% 3.1 mph NNW5.0 kmh NNW 9.8 mph15.8 kmh 28.91 in979.0 mb 0.00 in0.0 mm 0.00 in/hr0.0 mm/hr 0.00 in0.0 mm
09:11 AM 90.3°F32.4°C 67.9°F19.9°C 48% 2.2 mph NNW3.5 kmh NNW 9.8 mph15.8 kmh 28.91 in979.0 mb 0.00 in0.0 mm 0.00 in/hr0.0 mm/hr 0.00 in0.0 mm
09:10 AM 90.1°F32.3°C 67.7°F19.8°C 48% 5.4 mph NNW8.7 kmh NNW 9.8 mph15.8 kmh 28.91 in979.0 mb 0.00 in0.0 mm 0.00 in/hr0.0 mm/hr 0.00 in0.0 mm
09:09 AM 90.1°F32.3°C 67.7°F19.8°C 48% Calm Calm 9.2 mph14.8 kmh 28.91 in979.0 mb 0.00 in0.0 mm 0.00 in/hr0.0 mm/hr 0.00 in0.0 mm
09:08 AM 90.1°F32.3°C 67.7°F19.8°C 48% 9.2 mph NNW14.8 kmh NNW 9.2 mph14.8 kmh 28.91 in979.0 mb 0.00 in0.0 mm 0.00 in/hr0.0 mm/hr 0.00 in0.0 mm
09:07 AM 90.0°F32.2°C 67.6°F19.8°C 48% 1.1 mph NW1.8 kmh NW 7.4 mph11.9 kmh 28.91 in979.0 mb 0.00 in0.0 mm 0.00 in/hr0.0 mm/hr 0.00 in0.0 mm
09:06 AM 89.8°F32.1°C 67.4°F19.7°C 48% Calm Calm 7.8 mph12.6 kmh 28.91 in979.0 mb 0.00 in0.0 mm 0.00 in/hr0.0 mm/hr 0.00 in0.0 mm
09:05 AM 89.8°F32.1°C 67.4°F19.7°C 48% Calm Calm 8.3 mph13.4 kmh 28.91 in979.0 mb 0.00 in0.0 mm 0.00 in/hr0.0 mm/hr 0.00 in0.0 mm
09:04 AM 89.8°F32.1°C 67.4°F19.7°C 48% 4.0 mph NW6.4 kmh NW 8.3 mph13.4 kmh 28.91 in979.0 mb 0.00 in0.0 mm 0.00 in/hr0.0 mm/hr 0.00 in0.0 mm
09:03 AM 90.0°F32.2°C 67.6°F19.8°C 48% 2.5 mph NW4.0 kmh NW 8.3 mph13.4 kmh 28.91 in979.0 mb 0.00 in0.0 mm 0.00 in/hr0.0 mm/hr 0.00 in0.0 mm
09:02 AM 90.0°F32.2°C 67.6°F19.8°C 48% 5.8 mph NW9.3 kmh NW 8.3 mph13.4 kmh 28.91 in979.0 mb 0.00 in0.0 mm 0.00 in/hr0.0 mm/hr 0.00 in0.0 mm
09:01 AM 89.8°F32.1°C 67.4°F19.7°C 48% 2.5 mph NW4.0 kmh NW 8.3 mph13.4 kmh 28.91 in979.0 mb 0.00 in0.0 mm 0.00 in/hr0.0 mm/hr 0.00 in0.0 mm
09:00 AM 89.8°F32.1°C 67.4°F19.7°C 48% 4.5 mph NW7.2 kmh NW 8.3 mph13.4 kmh 28.91 in979.0 mb 0.00 in0.0 mm 0.00 in/hr0.0 mm/hr 0.00 in0.0 mm
08:59 AM 89.8°F32.1°C 67.4°F19.7°C 48% 2.7 mph NW4.3 kmh NW 8.3 mph13.4 kmh 28.91 in979.0 mb 0.00 in0.0 mm 0.00 in/hr0.0 mm/hr 0.00 in0.0 mm
08:58 AM 89.8°F32.1°C 68.1°F20.1°C 49% Calm Calm 8.3 mph13.4 kmh 28.92 in979.3 mb 0.00 in0.0 mm 0.00 in/hr0.0 mm/hr 0.00 in0.0 mm
08:57 AM 89.8°F32.1°C 68.1°F20.1°C 49% 2.7 mph NW4.3 kmh NW 8.3 mph13.4 kmh 28.91 in979.0 mb 0.00 in0.0 mm 0.00 in/hr0.0 mm/hr 0.00 in0.0 mm
08:56 AM 89.8°F32.1°C 68.1°F20.1°C 49% 8.3 mph NW13.4 kmh NW 9.2 mph14.8 kmh 28.91 in979.0 mb 0.00 in0.0 mm 0.00 in/hr0.0 mm/hr 0.00 in0.0 mm
08:55 AM 89.8°F32.1°C 68.1°F20.1°C 49% 2.5 mph NW4.0 kmh NW 9.2 mph14.8 kmh 28.91 in979.0 mb 0.00 in0.0 mm 0.00 in/hr0.0 mm/hr 0.00 in0.0 mm
08:54 AM 89.6°F32.0°C 67.9°F19.9°C 49% 8.1 mph NW13.0 kmh NW 9.2 mph14.8 kmh 28.91 in979.0 mb 0.00 in0.0 mm 0.00 in/hr0.0 mm/hr 0.00 in0.0 mm
08:53 AM 89.6°F32.0°C 67.9°F19.9°C 49% 4.0 mph NW6.4 kmh NW 9.2 mph14.8 kmh 28.91 in979.0 mb 0.00 in0.0 mm 0.00 in/hr0.0 mm/hr 0.00 in0.0 mm
08:52 AM 89.6°F32.0°C 67.9°F19.9°C 49% 4.7 mph NW7.6 kmh NW 9.2 mph14.8 kmh 28.91 in979.0 mb 0.00 in0.0 mm 0.00 in/hr0.0 mm/hr 0.00 in0.0 mm
08:51 AM 89.6°F32.0°C 67.9°F19.9°C 49% 1.1 mph NW1.8 kmh NW 9.6 mph15.4 kmh 28.91 in979.0 mb 0.00 in0.0 mm 0.00 in/hr0.0 mm/hr 0.00 in0.0 mm
08:50 AM 89.4°F31.9°C 67.7°F19.8°C 49% 2.5 mph NW4.0 kmh NW 9.6 mph15.4 kmh 28.91 in979.0 mb 0.00 in0.0 mm 0.00 in/hr0.0 mm/hr 0.00 in0.0 mm
08:49 AM 89.4°F31.9°C 67.7°F19.8°C 49% 4.5 mph NW7.2 kmh NW 9.6 mph15.4 kmh 28.91 in979.0 mb 0.00 in0.0 mm 0.00 in/hr0.0 mm/hr 0.00 in0.0 mm
08:48 AM 89.4°F31.9°C 67.7°F19.8°C 49% 2.5 mph NW4.0 kmh NW 9.6 mph15.4 kmh 28.91 in979.0 mb 0.00 in0.0 mm 0.00 in/hr0.0 mm/hr 0.00 in0.0 mm
08:47 AM 89.4°F31.9°C 67.7°F19.8°C 49% 4.3 mph NW6.9 kmh NW 9.6 mph15.4 kmh 28.91 in979.0 mb 0.00 in0.0 mm 0.00 in/hr0.0 mm/hr 0.00 in0.0 mm
08:46 AM 89.4°F31.9°C 67.7°F19.8°C 49% 4.3 mph NW6.9 kmh NW 9.6 mph15.4 kmh 28.91 in979.0 mb 0.00 in0.0 mm 0.00 in/hr0.0 mm/hr 0.00 in0.0 mm
08:45 AM 89.4°F31.9°C 67.7°F19.8°C 49% 4.3 mph NW6.9 kmh NW 9.6 mph15.4 kmh 28.91 in979.0 mb 0.00 in0.0 mm 0.00 in/hr0.0 mm/hr 0.00 in0.0 mm
08:44 AM 89.4°F31.9°C 67.7°F19.8°C 49% 6.5 mph NW10.5 kmh NW 9.6 mph15.4 kmh 28.91 in979.0 mb 0.00 in0.0 mm 0.00 in/hr0.0 mm/hr 0.00 in0.0 mm
08:43 AM 89.4°F31.9°C 67.7°F19.8°C 49% 6.5 mph NW10.5 kmh NW 9.6 mph15.4 kmh 28.91 in979.0 mb 0.00 in0.0 mm 0.00 in/hr0.0 mm/hr 0.00 in0.0 mm
08:42 AM 89.4°F31.9°C 67.7°F19.8°C 49% 5.6 mph NW9.0 kmh NW 9.6 mph15.4 kmh 28.91 in979.0 mb 0.00 in0.0 mm 0.00 in/hr0.0 mm/hr 0.00 in0.0 mm
08:41 AM 89.4°F31.9°C 67.7°F19.8°C 49% 4.5 mph NW7.2 kmh NW 8.9 mph14.3 kmh 28.91 in979.0 mb 0.00 in0.0 mm 0.00 in/hr0.0 mm/hr 0.00 in0.0 mm
08:40 AM 89.4°F31.9°C 67.7°F19.8°C 49% 4.9 mph NW7.9 kmh NW 8.9 mph14.3 kmh 28.91 in979.0 mb 0.00 in0.0 mm 0.00 in/hr0.0 mm/hr 0.00 in0.0 mm
08:39 AM 89.4°F31.9°C 67.7°F19.8°C 49% 2.5 mph NW4.0 kmh NW 8.9 mph14.3 kmh 28.91 in979.0 mb 0.00 in0.0 mm 0.00 in/hr0.0 mm/hr 0.00 in0.0 mm
08:38 AM 89.4°F31.9°C 67.7°F19.8°C 49% 3.6 mph NW5.8 kmh NW 8.5 mph13.7 kmh 28.91 in979.0 mb 0.00 in0.0 mm 0.00 in/hr0.0 mm/hr 0.00 in0.0 mm
08:37 AM 89.4°F31.9°C 67.7°F19.8°C 49% 3.8 mph NW6.1 kmh NW 8.5 mph13.7 kmh 28.91 in979.0 mb 0.00 in0.0 mm 0.00 in/hr0.0 mm/hr 0.00 in0.0 mm
08:36 AM 89.4°F31.9°C 67.7°F19.8°C 49% 5.1 mph NW8.2 kmh NW 8.5 mph13.7 kmh 28.92 in979.3 mb 0.00 in0.0 mm 0.00 in/hr0.0 mm/hr 0.00 in0.0 mm
08:35 AM 89.4°F31.9°C 67.7°F19.8°C 49% 4.5 mph NW7.2 kmh NW 8.5 mph13.7 kmh 28.91 in979.0 mb 0.00 in0.0 mm 0.00 in/hr0.0 mm/hr 0.00 in0.0 mm
08:34 AM 89.4°F31.9°C 68.4°F20.2°C 50% 4.0 mph NW6.4 kmh NW 8.5 mph13.7 kmh 28.91 in979.0 mb 0.00 in0.0 mm 0.00 in/hr0.0 mm/hr 0.00 in0.0 mm
08:33 AM 89.4°F31.9°C 68.4°F20.2°C 50% 6.0 mph NW9.7 kmh NW 7.6 mph12.2 kmh 28.91 in979.0 mb 0.00 in0.0 mm 0.00 in/hr0.0 mm/hr 0.00 in0.0 mm
08:32 AM 89.4°F31.9°C 68.4°F20.2°C 50% 6.3 mph NW10.1 kmh NW 6.9 mph11.1 kmh 28.91 in979.0 mb 0.00 in0.0 mm 0.00 in/hr0.0 mm/hr 0.00 in0.0 mm
08:31 AM 89.2°F31.8°C 68.2°F20.1°C 50% 3.6 mph NW5.8 kmh NW 6.9 mph11.1 kmh 28.91 in979.0 mb 0.00 in0.0 mm 0.00 in/hr0.0 mm/hr 0.00 in0.0 mm
08:30 AM 89.2°F31.8°C 68.2°F20.1°C 50% 3.6 mph NW5.8 kmh NW 6.3 mph10.1 kmh 28.91 in979.0 mb 0.00 in0.0 mm 0.00 in/hr0.0 mm/hr 0.00 in0.0 mm
08:29 AM 89.2°F31.8°C 68.2°F20.1°C 50% 2.7 mph NW4.3 kmh NW 6.3 mph10.1 kmh 28.91 in979.0 mb 0.00 in0.0 mm 0.00 in/hr0.0 mm/hr 0.00 in0.0 mm
08:28 AM 88.9°F31.6°C 67.9°F19.9°C 50% 3.6 mph NW5.8 kmh NW 6.3 mph10.1 kmh 28.91 in979.0 mb 0.00 in0.0 mm 0.00 in/hr0.0 mm/hr 0.00 in0.0 mm
08:27 AM 88.9°F31.6°C 67.9°F19.9°C 50% Calm Calm 6.3 mph10.1 kmh 28.91 in979.0 mb 0.00 in0.0 mm 0.00 in/hr0.0 mm/hr 0.00 in0.0 mm
08:26 AM 88.9°F31.6°C 67.9°F19.9°C 50% 3.6 mph NW5.8 kmh NW 6.3 mph10.1 kmh 28.91 in979.0 mb 0.00 in0.0 mm 0.00 in/hr0.0 mm/hr 0.00 in0.0 mm
08:25 AM 88.9°F31.6°C 68.4°F20.2°C 51% 3.1 mph NW5.0 kmh NW 6.3 mph10.1 kmh 28.91 in979.0 mb 0.00 in0.0 mm 0.00 in/hr0.0 mm/hr 0.00 in0.0 mm
08:24 AM 88.7°F31.5°C 68.3°F20.2°C 51% 3.4 mph NW5.5 kmh NW 6.3 mph10.1 kmh 28.91 in979.0 mb 0.00 in0.0 mm 0.00 in/hr0.0 mm/hr 0.00 in0.0 mm
08:23 AM 88.5°F31.4°C 68.1°F20.1°C 51% Calm Calm 4.7 mph7.6 kmh 28.91 in979.0 mb 0.00 in0.0 mm 0.00 in/hr0.0 mm/hr 0.00 in0.0 mm
08:22 AM 88.5°F31.4°C 68.1°F20.1°C 51% 2.0 mph NW3.2 kmh NW 4.7 mph7.6 kmh 28.91 in979.0 mb 0.00 in0.0 mm 0.00 in/hr0.0 mm/hr 0.00 in0.0 mm
08:21 AM 88.3°F31.3°C 67.9°F19.9°C 51% 1.6 mph NW2.6 kmh NW 4.7 mph7.6 kmh 28.91 in979.0 mb 0.00 in0.0 mm 0.00 in/hr0.0 mm/hr 0.00 in0.0 mm
08:20 AM 88.3°F31.3°C 67.9°F19.9°C 51% Calm Calm 4.7 mph7.6 kmh 28.91 in979.0 mb 0.00 in0.0 mm 0.00 in/hr0.0 mm/hr 0.00 in0.0 mm
08:19 AM 88.2°F31.2°C 67.8°F19.9°C 51% 2.7 mph NW4.3 kmh NW 4.7 mph7.6 kmh 28.91 in979.0 mb 0.00 in0.0 mm 0.00 in/hr0.0 mm/hr 0.00 in0.0 mm
08:18 AM 88.0°F31.1°C 68.2°F20.1°C 52% 3.8 mph NW6.1 kmh NW 4.7 mph7.6 kmh 28.91 in979.0 mb 0.00 in0.0 mm 0.00 in/hr0.0 mm/hr 0.00 in0.0 mm
08:17 AM 88.0°F31.1°C 68.2°F20.1°C 52% Calm Calm 2.5 mph4.0 kmh 28.91 in979.0 mb 0.00 in0.0 mm 0.00 in/hr0.0 mm/hr 0.00 in0.0 mm
08:16 AM 87.6°F30.9°C 67.8°F19.9°C 52% Calm Calm 2.5 mph4.0 kmh 28.91 in979.0 mb 0.00 in0.0 mm 0.00 in/hr0.0 mm/hr 0.00 in0.0 mm
08:15 AM 87.4°F30.8°C 67.7°F19.8°C 52% Calm Calm 2.5 mph4.0 kmh 28.91 in979.0 mb 0.00 in0.0 mm 0.00 in/hr0.0 mm/hr 0.00 in0.0 mm
08:14 AM 87.4°F30.8°C 67.7°F19.8°C 52% Calm Calm 2.5 mph4.0 kmh 28.91 in979.0 mb 0.00 in0.0 mm 0.00 in/hr0.0 mm/hr 0.00 in0.0 mm
08:13 AM 87.3°F30.7°C 67.9°F19.9°C 53% Calm Calm 2.5 mph4.0 kmh 28.91 in979.0 mb 0.00 in0.0 mm 0.00 in/hr0.0 mm/hr 0.00 in0.0 mm
08:12 AM 87.1°F30.6°C 67.9°F19.9°C 53% Calm Calm 2.5 mph4.0 kmh 28.91 in979.0 mb 0.00 in0.0 mm 0.00 in/hr0.0 mm/hr 0.00 in0.0 mm
08:11 AM 86.9°F30.5°C 67.7°F19.8°C 53% Calm Calm 2.5 mph4.0 kmh 28.91 in979.0 mb 0.00 in0.0 mm 0.00 in/hr0.0 mm/hr 0.00 in0.0 mm
08:10 AM 86.7°F30.4°C 67.5°F19.7°C 53% Calm Calm 2.5 mph4.0 kmh 28.91 in979.0 mb 0.00 in0.0 mm 0.00 in/hr0.0 mm/hr 0.00 in0.0 mm
08:09 AM 86.5°F30.3°C 67.4°F19.7°C 53% Calm Calm 0.7 mph1.1 kmh 28.91 in979.0 mb 0.00 in0.0 mm 0.00 in/hr0.0 mm/hr 0.00 in0.0 mm
08:08 AM 86.2°F30.1°C 67.6°F19.8°C 54% Calm Calm 0.7 mph1.1 kmh 28.91 in979.0 mb 0.00 in0.0 mm 0.00 in/hr0.0 mm/hr 0.00 in0.0 mm
08:07 AM 86.2°F30.1°C 67.6°F19.8°C 54% Calm Calm 0.7 mph1.1 kmh 28.91 in979.0 mb 0.00 in0.0 mm 0.00 in/hr0.0 mm/hr 0.00 in0.0 mm
08:06 AM 85.8°F29.9°C 67.2°F19.6°C 54% Calm Calm 0.7 mph1.1 kmh 28.91 in979.0 mb 0.00 in0.0 mm 0.00 in/hr0.0 mm/hr 0.00 in0.0 mm
08:05 AM 85.6°F29.8°C 67.6°F19.8°C 55% Calm Calm 0.7 mph1.1 kmh 28.91 in979.0 mb 0.00 in0.0 mm 0.00 in/hr0.0 mm/hr 0.00 in0.0 mm
08:04 AM 85.3°F29.6°C 67.3°F19.6°C 55% Calm Calm 0.7 mph1.1 kmh 28.90 in978.7 mb 0.00 in0.0 mm 0.00 in/hr0.0 mm/hr 0.00 in0.0 mm
08:03 AM 85.1°F29.5°C 67.6°F19.8°C 56% Calm Calm 0.7 mph1.1 kmh 28.90 in978.7 mb 0.00 in0.0 mm 0.00 in/hr0.0 mm/hr 0.00 in0.0 mm
08:02 AM 84.9°F29.4°C 67.5°F19.7°C 56% Calm Calm 0.7 mph1.1 kmh 28.91 in979.0 mb 0.00 in0.0 mm 0.00 in/hr0.0 mm/hr 0.00 in0.0 mm
08:01 AM 84.6°F29.2°C 67.1°F19.5°C 56% Calm Calm 0.7 mph1.1 kmh 28.91 in979.0 mb 0.00 in0.0 mm 0.00 in/hr0.0 mm/hr 0.00 in0.0 mm
08:00 AM 84.4°F29.1°C 67.0°F19.4°C 56% Calm Calm 0.7 mph1.1 kmh 28.91 in979.0 mb 0.00 in0.0 mm 0.00 in/hr0.0 mm/hr 0.00 in0.0 mm
07:59 AM 84.0°F28.9°C 66.6°F19.2°C 56% Calm Calm 0.7 mph1.1 kmh 28.91 in979.0 mb 0.00 in0.0 mm 0.00 in/hr0.0 mm/hr 0.00 in0.0 mm
07:58 AM 83.8°F28.8°C 67.0°F19.4°C 57% Calm Calm 0.7 mph1.1 kmh 28.91 in979.0 mb 0.00 in0.0 mm 0.00 in/hr0.0 mm/hr 0.00 in0.0 mm
07:57 AM 83.5°F28.6°C 66.6°F19.2°C 57% Calm Calm 0.7 mph1.1 kmh 28.91 in979.0 mb 0.00 in0.0 mm 0.00 in/hr0.0 mm/hr 0.00 in0.0 mm
07:56 AM 83.1°F28.4°C 66.3°F19.1°C 57% Calm Calm 0.7 mph1.1 kmh 28.91 in979.0 mb 0.00 in0.0 mm 0.00 in/hr0.0 mm/hr 0.00 in0.0 mm
07:55 AM 82.9°F28.3°C 66.6°F19.2°C 58% Calm Calm 0.7 mph1.1 kmh 28.91 in979.0 mb 0.00 in0.0 mm 0.00 in/hr0.0 mm/hr 0.00 in0.0 mm
07:54 AM 82.8°F28.2°C 66.4°F19.1°C 58% Calm Calm 0.7 mph1.1 kmh 28.91 in979.0 mb 0.00 in0.0 mm 0.00 in/hr0.0 mm/hr 0.00 in0.0 mm
07:53 AM 82.4°F28.0°C 66.1°F18.9°C 58% Calm Calm 0.7 mph1.1 kmh 28.91 in979.0 mb 0.00 in0.0 mm 0.00 in/hr0.0 mm/hr 0.00 in0.0 mm
07:52 AM 82.2°F27.9°C 66.4°F19.1°C 59% Calm Calm 0.7 mph1.1 kmh 28.91 in979.0 mb 0.00 in0.0 mm 0.00 in/hr0.0 mm/hr 0.00 in0.0 mm
07:51 AM 82.0°F27.8°C 65.7°F18.7°C 58% Calm Calm 0.7 mph1.1 kmh 28.91 in979.0 mb 0.00 in0.0 mm 0.00 in/hr0.0 mm/hr 0.00 in0.0 mm
07:50 AM 81.7°F27.6°C 65.9°F18.8°C 59% Calm Calm 0.7 mph1.1 kmh 28.91 in979.0 mb 0.00 in0.0 mm 0.00 in/hr0.0 mm/hr 0.00 in0.0 mm
07:49 AM 81.3°F27.4°C 65.6°F18.7°C 59% Calm Calm 0.7 mph1.1 kmh 28.91 in979.0 mb 0.00 in0.0 mm 0.00 in/hr0.0 mm/hr 0.00 in0.0 mm
07:48 AM 81.0°F27.2°C 65.8°F18.8°C 60% Calm Calm 0.7 mph1.1 kmh 28.91 in979.0 mb 0.00 in0.0 mm 0.00 in/hr0.0 mm/hr 0.00 in0.0 mm
07:47 AM 80.8°F27.1°C 65.6°F18.7°C 60% Calm Calm 0.7 mph1.1 kmh 28.91 in979.0 mb 0.00 in0.0 mm 0.00 in/hr0.0 mm/hr 0.00 in0.0 mm
07:46 AM 80.4°F26.9°C 65.3°F18.5°C 60% Calm Calm 0.7 mph1.1 kmh 28.91 in979.0 mb 0.00 in0.0 mm 0.00 in/hr0.0 mm/hr 0.00 in0.0 mm
07:45 AM 80.2°F26.8°C 65.2°F18.4°C 60% Calm Calm 0.7 mph1.1 kmh 28.91 in979.0 mb 0.00 in0.0 mm 0.00 in/hr0.0 mm/hr 0.00 in0.0 mm
07:44 AM 79.9°F26.6°C 65.3°F18.5°C 61% Calm Calm 0.7 mph1.1 kmh 28.91 in979.0 mb 0.00 in0.0 mm 0.00 in/hr0.0 mm/hr 0.00 in0.0 mm
07:43 AM 79.5°F26.4°C 64.9°F18.3°C 61% Calm Calm 0.7 mph1.1 kmh 28.91 in979.0 mb 0.00 in0.0 mm 0.00 in/hr0.0 mm/hr 0.00 in0.0 mm
07:42 AM 79.2°F26.2°C 64.6°F18.1°C 61% Calm Calm 0.7 mph1.1 kmh 28.91 in979.0 mb 0.00 in0.0 mm 0.00 in/hr0.0 mm/hr 0.00 in0.0 mm
07:41 AM 78.6°F25.9°C 64.5°F18.1°C 62% Calm Calm 0.7 mph1.1 kmh 28.91 in979.0 mb 0.00 in0.0 mm 0.00 in/hr0.0 mm/hr 0.00 in0.0 mm
07:40 AM 78.6°F25.9°C 64.5°F18.1°C 62% Calm Calm 0.7 mph1.1 kmh 28.91 in979.0 mb 0.00 in0.0 mm 0.00 in/hr0.0 mm/hr 0.00 in0.0 mm
07:39 AM 78.3°F25.7°C 64.2°F17.9°C 62% Calm Calm 0.7 mph1.1 kmh 28.91 in979.0 mb 0.00 in0.0 mm 0.00 in/hr0.0 mm/hr 0.00 in0.0 mm
07:38 AM 77.9°F25.5°C 64.3°F17.9°C 63% Calm Calm 0.7 mph1.1 kmh 28.91 in979.0 mb 0.00 in0.0 mm 0.00 in/hr0.0 mm/hr 0.00 in0.0 mm
07:37 AM 77.5°F25.3°C 63.9°F17.7°C 63% Calm Calm 0.7 mph1.1 kmh 28.91 in979.0 mb 0.00 in0.0 mm 0.00 in/hr0.0 mm/hr 0.00 in0.0 mm
07:36 AM 77.4°F25.2°C 63.8°F17.7°C 63% Calm Calm 0.7 mph1.1 kmh 28.91 in979.0 mb 0.00 in0.0 mm 0.00 in/hr0.0 mm/hr 0.00 in0.0 mm
07:35 AM 77.0°F25.0°C 63.4°F17.4°C 63% Calm Calm 0.7 mph1.1 kmh 28.91 in979.0 mb 0.00 in0.0 mm 0.00 in/hr0.0 mm/hr 0.00 in0.0 mm
07:34 AM 76.8°F24.9°C 63.2°F17.3°C 63% Calm Calm 0.7 mph1.1 kmh 28.91 in979.0 mb 0.00 in0.0 mm 0.00 in/hr0.0 mm/hr 0.00 in0.0 mm
07:33 AM 76.6°F24.8°C 63.1°F17.3°C 63% Calm Calm 0.7 mph1.1 kmh 28.91 in979.0 mb 0.00 in0.0 mm 0.00 in/hr0.0 mm/hr 0.00 in0.0 mm
07:32 AM 76.3°F24.6°C 63.2°F17.3°C 64% Calm Calm 0.7 mph1.1 kmh 28.91 in979.0 mb 0.00 in0.0 mm 0.00 in/hr0.0 mm/hr 0.00 in0.0 mm
07:31 AM 75.9°F24.4°C 62.8°F17.1°C 64% Calm Calm 0.7 mph1.1 kmh 28.91 in979.0 mb 0.00 in0.0 mm 0.00 in/hr0.0 mm/hr 0.00 in0.0 mm
07:30 AM 75.7°F24.3°C 62.7°F17.1°C 64% Calm Calm 0.7 mph1.1 kmh 28.91 in979.0 mb 0.00 in0.0 mm 0.00 in/hr0.0 mm/hr 0.00 in0.0 mm
07:29 AM 83.8°F28.8°C 67.4°F19.7°C 59% 4.7 mph ESE7.6 kmh ESE 4.7 mph7.6 kmh 28.97 in981.0 mb 0.00 in0.0 mm 0.00 in/hr0.0 mm/hr 0.00 in0.0 mm
07:28 AM 111.0°F43.9°C 72.5°F22.5°C 33% 16.1 mph SW25.9 kmh SW 16.1 mph25.9 kmh 28.95 in980.4 mb 0.00 in0.0 mm 0.00 in/hr0.0 mm/hr 0.00 in0.0 mm
07:27 AM 103.1°F39.5°C 63.6°F17.6°C 31% 17.7 mph WSW28.5 kmh WSW 17.7 mph28.5 kmh 28.81 in975.6 mb 0.00 in0.0 mm 0.00 in/hr0.0 mm/hr 0.00 in0.0 mm